<?xml version="1.0" encoding="UTF-8" standalone="no" ?>
<gpx xmlns="http://www.topografix.com/GPX/1/1" xmlns:xsi="http://www.w3.org/2001/XMLSchema-instance" xsi:schemaLocation="http://www.topografix.com/GPX/1/1 http://www.topografix.com/GPX/1/1/gpx.xsd" version="1.1" creator="VisuGPX - https://www.visugpx.com">
  <metadata>
    <name>VTT Dans la Forêt du Sapet sous le Piolit</name>
    <desc><![CDATA[Plus VTC que VTT : Goudron, pistes/goudrons mais 9% en moyenne à la montée suivie d'un balcon reposant et d'une descente tranquille Superbe panorama sur Serre Ponçon et l'Avance]]></desc>
  </metadata>
  <trk>
    <name><![CDATA[N°4  Sapet]]></name>
    <trkseg>
      <trkpt lat="44.5654" lon="6.19723">
        <ele>797.551025</ele>
        <time>2011-05-19T08:57:23Z</time>
      </trkpt>
      <trkpt lat="44.5654" lon="6.19732">
        <ele>801.39624</ele>
        <time>2011-05-19T08:57:57Z</time>
      </trkpt>
      <trkpt lat="44.5654" lon="6.19732">
        <ele>805.722168</ele>
        <time>2011-05-19T08:57:59Z</time>
      </trkpt>
      <trkpt lat="44.5654" lon="6.19733">
        <ele>809.08667</ele>
        <time>2011-05-19T08:58:01Z</time>
      </trkpt>
      <trkpt lat="44.5654" lon="6.19732">
        <ele>811.970703</ele>
        <time>2011-05-19T08:58:03Z</time>
      </trkpt>
      <trkpt lat="44.5654" lon="6.19732">
        <ele>815.335449</ele>
        <time>2011-05-19T08:58:05Z</time>
      </trkpt>
      <trkpt lat="44.5654" lon="6.19732">
        <ele>818.699951</ele>
        <time>2011-05-19T08:58:07Z</time>
      </trkpt>
      <trkpt lat="44.5654" lon="6.19732">
        <ele>822.545166</ele>
        <time>2011-05-19T08:58:10Z</time>
      </trkpt>
      <trkpt lat="44.5654" lon="6.19732">
        <ele>825.428955</ele>
        <time>2011-05-19T08:58:12Z</time>
      </trkpt>
      <trkpt lat="44.5654" lon="6.19732">
        <ele>825.428955</ele>
        <time>2011-05-19T08:58:13Z</time>
      </trkpt>
      <trkpt lat="44.5654" lon="6.19732">
        <ele>828.793945</ele>
        <time>2011-05-19T08:58:15Z</time>
      </trkpt>
      <trkpt lat="44.5654" lon="6.19732">
        <ele>832.63916</ele>
        <time>2011-05-19T08:58:19Z</time>
      </trkpt>
      <trkpt lat="44.5654" lon="6.19733">
        <ele>835.04248</ele>
        <time>2011-05-19T08:58:22Z</time>
      </trkpt>
      <trkpt lat="44.56537" lon="6.19722">
        <ele>840.32959</ele>
        <time>2011-05-19T08:58:28Z</time>
      </trkpt>
      <trkpt lat="44.56535" lon="6.19718">
        <ele>841.290771</ele>
        <time>2011-05-19T08:58:30Z</time>
      </trkpt>
      <trkpt lat="44.56534" lon="6.1972">
        <ele>845.13623</ele>
        <time>2011-05-19T08:58:36Z</time>
      </trkpt>
      <trkpt lat="44.56535" lon="6.19719">
        <ele>847.058838</ele>
        <time>2011-05-19T08:58:40Z</time>
      </trkpt>
      <trkpt lat="44.56535" lon="6.1972">
        <ele>847.539551</ele>
        <time>2011-05-19T08:58:41Z</time>
      </trkpt>
      <trkpt lat="44.56522" lon="6.19728">
        <ele>850.904053</ele>
        <time>2011-05-19T08:58:48Z</time>
      </trkpt>
      <trkpt lat="44.56505" lon="6.19753">
        <ele>854.268799</ele>
        <time>2011-05-19T08:58:56Z</time>
      </trkpt>
      <trkpt lat="44.56503" lon="6.19753">
        <ele>857.152588</ele>
        <time>2011-05-19T08:59:09Z</time>
      </trkpt>
      <trkpt lat="44.56493" lon="6.19774">
        <ele>859.555908</ele>
        <time>2011-05-19T08:59:23Z</time>
      </trkpt>
      <trkpt lat="44.56478" lon="6.19844">
        <ele>860.998047</ele>
        <time>2011-05-19T08:59:37Z</time>
      </trkpt>
      <trkpt lat="44.56463" lon="6.19952">
        <ele>863.881836</ele>
        <time>2011-05-19T08:59:58Z</time>
      </trkpt>
      <trkpt lat="44.56474" lon="6.19991">
        <ele>864.362549</ele>
        <time>2011-05-19T09:00:13Z</time>
      </trkpt>
      <trkpt lat="44.5648" lon="6.20007">
        <ele>865.323975</ele>
        <time>2011-05-19T09:00:22Z</time>
      </trkpt>
      <trkpt lat="44.56488" lon="6.20027">
        <ele>863.881836</ele>
        <time>2011-05-19T09:00:25Z</time>
      </trkpt>
      <trkpt lat="44.56497" lon="6.20046">
        <ele>863.401367</ele>
        <time>2011-05-19T09:00:28Z</time>
      </trkpt>
      <trkpt lat="44.56513" lon="6.20089">
        <ele>863.881836</ele>
        <time>2011-05-19T09:00:40Z</time>
      </trkpt>
      <trkpt lat="44.56524" lon="6.20115">
        <ele>862.920654</ele>
        <time>2011-05-19T09:01:01Z</time>
      </trkpt>
      <trkpt lat="44.56543" lon="6.20158">
        <ele>862.920654</ele>
        <time>2011-05-19T09:01:10Z</time>
      </trkpt>
      <trkpt lat="44.56549" lon="6.20173">
        <ele>862.920654</ele>
        <time>2011-05-19T09:01:13Z</time>
      </trkpt>
      <trkpt lat="44.56574" lon="6.20221">
        <ele>862.439941</ele>
        <time>2011-05-19T09:01:23Z</time>
      </trkpt>
      <trkpt lat="44.56611" lon="6.20288">
        <ele>862.439941</ele>
        <time>2011-05-19T09:01:39Z</time>
      </trkpt>
      <trkpt lat="44.56645" lon="6.20355">
        <ele>863.881836</ele>
        <time>2011-05-19T09:01:55Z</time>
      </trkpt>
      <trkpt lat="44.56675" lon="6.2042">
        <ele>865.323975</ele>
        <time>2011-05-19T09:02:12Z</time>
      </trkpt>
      <trkpt lat="44.56697" lon="6.20485">
        <ele>866.765869</ele>
        <time>2011-05-19T09:02:29Z</time>
      </trkpt>
      <trkpt lat="44.56715" lon="6.20562">
        <ele>867.246582</ele>
        <time>2011-05-19T09:02:46Z</time>
      </trkpt>
      <trkpt lat="44.56736" lon="6.2065">
        <ele>867.727051</ele>
        <time>2011-05-19T09:03:05Z</time>
      </trkpt>
      <trkpt lat="44.5676" lon="6.20745">
        <ele>869.649902</ele>
        <time>2011-05-19T09:03:27Z</time>
      </trkpt>
      <trkpt lat="44.56776" lon="6.20808">
        <ele>871.572266</ele>
        <time>2011-05-19T09:03:44Z</time>
      </trkpt>
      <trkpt lat="44.56798" lon="6.20881">
        <ele>873.014404</ele>
        <time>2011-05-19T09:04:05Z</time>
      </trkpt>
      <trkpt lat="44.56819" lon="6.20933">
        <ele>874.456299</ele>
        <time>2011-05-19T09:04:21Z</time>
      </trkpt>
      <trkpt lat="44.56843" lon="6.20988">
        <ele>875.898193</ele>
        <time>2011-05-19T09:04:38Z</time>
      </trkpt>
      <trkpt lat="44.56865" lon="6.21039">
        <ele>877.821045</ele>
        <time>2011-05-19T09:04:55Z</time>
      </trkpt>
      <trkpt lat="44.56888" lon="6.21089">
        <ele>878.782471</ele>
        <time>2011-05-19T09:05:10Z</time>
      </trkpt>
      <trkpt lat="44.56913" lon="6.21152">
        <ele>880.705078</ele>
        <time>2011-05-19T09:05:29Z</time>
      </trkpt>
      <trkpt lat="44.56934" lon="6.21205">
        <ele>882.627686</ele>
        <time>2011-05-19T09:05:48Z</time>
      </trkpt>
      <trkpt lat="44.56952" lon="6.21255">
        <ele>885.031006</ele>
        <time>2011-05-19T09:06:07Z</time>
      </trkpt>
      <trkpt lat="44.5697" lon="6.21308">
        <ele>886.953369</ele>
        <time>2011-05-19T09:06:27Z</time>
      </trkpt>
      <trkpt lat="44.56981" lon="6.21339">
        <ele>889.356689</ele>
        <time>2011-05-19T09:06:40Z</time>
      </trkpt>
      <trkpt lat="44.56994" lon="6.21377">
        <ele>890.798584</ele>
        <time>2011-05-19T09:06:54Z</time>
      </trkpt>
      <trkpt lat="44.56997" lon="6.21387">
        <ele>891.76001</ele>
        <time>2011-05-19T09:06:58Z</time>
      </trkpt>
      <trkpt lat="44.57005" lon="6.21417">
        <ele>893.682861</ele>
        <time>2011-05-19T09:07:11Z</time>
      </trkpt>
      <trkpt lat="44.5701" lon="6.2144">
        <ele>895.124756</ele>
        <time>2011-05-19T09:07:21Z</time>
      </trkpt>
      <trkpt lat="44.57015" lon="6.21462">
        <ele>896.566895</ele>
        <time>2011-05-19T09:07:32Z</time>
      </trkpt>
      <trkpt lat="44.57018" lon="6.21499">
        <ele>898.969971</ele>
        <time>2011-05-19T09:07:47Z</time>
      </trkpt>
      <trkpt lat="44.57018" lon="6.21504">
        <ele>898.969971</ele>
        <time>2011-05-19T09:07:49Z</time>
      </trkpt>
      <trkpt lat="44.57018" lon="6.21557">
        <ele>901.373291</ele>
        <time>2011-05-19T09:08:10Z</time>
      </trkpt>
      <trkpt lat="44.57018" lon="6.21598">
        <ele>902.334473</ele>
        <time>2011-05-19T09:08:26Z</time>
      </trkpt>
      <trkpt lat="44.57018" lon="6.21611">
        <ele>903.295898</ele>
        <time>2011-05-19T09:08:31Z</time>
      </trkpt>
      <trkpt lat="44.57018" lon="6.21653">
        <ele>905.218506</ele>
        <time>2011-05-19T09:08:48Z</time>
      </trkpt>
      <trkpt lat="44.57016" lon="6.21692">
        <ele>907.621826</ele>
        <time>2011-05-19T09:09:04Z</time>
      </trkpt>
      <trkpt lat="44.57016" lon="6.21722">
        <ele>909.544678</ele>
        <time>2011-05-19T09:09:17Z</time>
      </trkpt>
      <trkpt lat="44.57021" lon="6.2176">
        <ele>912.428467</ele>
        <time>2011-05-19T09:09:34Z</time>
      </trkpt>
      <trkpt lat="44.57027" lon="6.2179">
        <ele>914.351074</ele>
        <time>2011-05-19T09:09:48Z</time>
      </trkpt>
      <trkpt lat="44.57028" lon="6.21796">
        <ele>915.3125</ele>
        <time>2011-05-19T09:09:51Z</time>
      </trkpt>
      <trkpt lat="44.5703" lon="6.21801">
        <ele>915.793213</ele>
        <time>2011-05-19T09:09:54Z</time>
      </trkpt>
      <trkpt lat="44.57034" lon="6.21816">
        <ele>916.754395</ele>
        <time>2011-05-19T09:10:01Z</time>
      </trkpt>
      <trkpt lat="44.57036" lon="6.21822">
        <ele>917.235107</ele>
        <time>2011-05-19T09:10:05Z</time>
      </trkpt>
      <trkpt lat="44.5705" lon="6.21857">
        <ele>920.118896</ele>
        <time>2011-05-19T09:10:21Z</time>
      </trkpt>
      <trkpt lat="44.57052" lon="6.2186">
        <ele>920.599609</ele>
        <time>2011-05-19T09:10:23Z</time>
      </trkpt>
      <trkpt lat="44.57063" lon="6.21884">
        <ele>922.522217</ele>
        <time>2011-05-19T09:10:36Z</time>
      </trkpt>
      <trkpt lat="44.57071" lon="6.219">
        <ele>923.964111</ele>
        <time>2011-05-19T09:10:45Z</time>
      </trkpt>
      <trkpt lat="44.57079" lon="6.2191">
        <ele>924.925781</ele>
        <time>2011-05-19T09:10:51Z</time>
      </trkpt>
      <trkpt lat="44.57085" lon="6.2192">
        <ele>925.886963</ele>
        <time>2011-05-19T09:10:57Z</time>
      </trkpt>
      <trkpt lat="44.57101" lon="6.21944">
        <ele>928.770996</ele>
        <time>2011-05-19T09:11:12Z</time>
      </trkpt>
      <trkpt lat="44.57116" lon="6.21966">
        <ele>930.693604</ele>
        <time>2011-05-19T09:11:27Z</time>
      </trkpt>
      <trkpt lat="44.5712" lon="6.21972">
        <ele>931.174316</ele>
        <time>2011-05-19T09:11:31Z</time>
      </trkpt>
      <trkpt lat="44.57143" lon="6.22003">
        <ele>934.058105</ele>
        <time>2011-05-19T09:11:50Z</time>
      </trkpt>
      <trkpt lat="44.57158" lon="6.22025">
        <ele>936.461426</ele>
        <time>2011-05-19T09:12:05Z</time>
      </trkpt>
      <trkpt lat="44.57175" lon="6.22056">
        <ele>938.384033</ele>
        <time>2011-05-19T09:12:22Z</time>
      </trkpt>
      <trkpt lat="44.57176" lon="6.22059">
        <ele>938.864746</ele>
        <time>2011-05-19T09:12:24Z</time>
      </trkpt>
      <trkpt lat="44.57178" lon="6.22063">
        <ele>939.345215</ele>
        <time>2011-05-19T09:12:26Z</time>
      </trkpt>
      <trkpt lat="44.57189" lon="6.22088">
        <ele>941.268066</ele>
        <time>2011-05-19T09:12:39Z</time>
      </trkpt>
      <trkpt lat="44.57195" lon="6.22105">
        <ele>942.229492</ele>
        <time>2011-05-19T09:12:47Z</time>
      </trkpt>
      <trkpt lat="44.57201" lon="6.22136">
        <ele>944.632568</ele>
        <time>2011-05-19T09:13:03Z</time>
      </trkpt>
      <trkpt lat="44.57203" lon="6.22145">
        <ele>945.593994</ele>
        <time>2011-05-19T09:13:08Z</time>
      </trkpt>
      <trkpt lat="44.57207" lon="6.22172">
        <ele>947.516602</ele>
        <time>2011-05-19T09:13:23Z</time>
      </trkpt>
      <trkpt lat="44.57209" lon="6.2218">
        <ele>947.997314</ele>
        <time>2011-05-19T09:13:26Z</time>
      </trkpt>
      <trkpt lat="44.57211" lon="6.22189">
        <ele>948.958496</ele>
        <time>2011-05-19T09:13:30Z</time>
      </trkpt>
      <trkpt lat="44.57217" lon="6.22223">
        <ele>950.881104</ele>
        <time>2011-05-19T09:13:45Z</time>
      </trkpt>
      <trkpt lat="44.57218" lon="6.22232">
        <ele>951.361816</ele>
        <time>2011-05-19T09:13:49Z</time>
      </trkpt>
      <trkpt lat="44.57225" lon="6.2227">
        <ele>953.765137</ele>
        <time>2011-05-19T09:14:06Z</time>
      </trkpt>
      <trkpt lat="44.57226" lon="6.22283">
        <ele>954.726318</ele>
        <time>2011-05-19T09:14:13Z</time>
      </trkpt>
      <trkpt lat="44.57234" lon="6.22303">
        <ele>956.64917</ele>
        <time>2011-05-19T09:14:25Z</time>
      </trkpt>
      <trkpt lat="44.57238" lon="6.2231">
        <ele>956.64917</ele>
        <time>2011-05-19T09:14:29Z</time>
      </trkpt>
      <trkpt lat="44.57241" lon="6.22315">
        <ele>957.129883</ele>
        <time>2011-05-19T09:14:32Z</time>
      </trkpt>
      <trkpt lat="44.57243" lon="6.22318">
        <ele>958.091309</ele>
        <time>2011-05-19T09:14:34Z</time>
      </trkpt>
      <trkpt lat="44.57247" lon="6.22322">
        <ele>958.571777</ele>
        <time>2011-05-19T09:14:39Z</time>
      </trkpt>
      <trkpt lat="44.57267" lon="6.22329">
        <ele>960.975098</ele>
        <time>2011-05-19T09:14:55Z</time>
      </trkpt>
      <trkpt lat="44.57289" lon="6.22332">
        <ele>962.416992</ele>
        <time>2011-05-19T09:15:08Z</time>
      </trkpt>
      <trkpt lat="44.57313" lon="6.22344">
        <ele>964.820313</ele>
        <time>2011-05-19T09:15:23Z</time>
      </trkpt>
      <trkpt lat="44.57321" lon="6.22348">
        <ele>964.3396</ele>
        <time>2011-05-19T09:15:28Z</time>
      </trkpt>
      <trkpt lat="44.57325" lon="6.2235">
        <ele>965.781738</ele>
        <time>2011-05-19T09:15:30Z</time>
      </trkpt>
      <trkpt lat="44.5734" lon="6.2236">
        <ele>967.223633</ele>
        <time>2011-05-19T09:15:41Z</time>
      </trkpt>
      <trkpt lat="44.57361" lon="6.2238">
        <ele>969.14624</ele>
        <time>2011-05-19T09:15:52Z</time>
      </trkpt>
      <trkpt lat="44.5737" lon="6.22367">
        <ele>970.107422</ele>
        <time>2011-05-19T09:16:04Z</time>
      </trkpt>
      <trkpt lat="44.5737" lon="6.22367">
        <ele>971.068848</ele>
        <time>2011-05-19T09:16:15Z</time>
      </trkpt>
      <trkpt lat="44.5737" lon="6.22367">
        <ele>971.549316</ele>
        <time>2011-05-19T09:16:38Z</time>
      </trkpt>
      <trkpt lat="44.5737" lon="6.22367">
        <ele>971.549316</ele>
        <time>2011-05-19T09:16:53Z</time>
      </trkpt>
      <trkpt lat="44.57373" lon="6.22362">
        <ele>970.588135</ele>
        <time>2011-05-19T09:16:57Z</time>
      </trkpt>
      <trkpt lat="44.57386" lon="6.22322">
        <ele>972.991699</ele>
        <time>2011-05-19T09:17:15Z</time>
      </trkpt>
      <trkpt lat="44.57403" lon="6.22321">
        <ele>973.952881</ele>
        <time>2011-05-19T09:17:26Z</time>
      </trkpt>
      <trkpt lat="44.57417" lon="6.22361">
        <ele>976.836914</ele>
        <time>2011-05-19T09:17:44Z</time>
      </trkpt>
      <trkpt lat="44.57424" lon="6.22385">
        <ele>978.759521</ele>
        <time>2011-05-19T09:17:56Z</time>
      </trkpt>
      <trkpt lat="44.57432" lon="6.22397">
        <ele>979.23999</ele>
        <time>2011-05-19T09:18:03Z</time>
      </trkpt>
      <trkpt lat="44.57433" lon="6.224">
        <ele>980.201416</ele>
        <time>2011-05-19T09:18:05Z</time>
      </trkpt>
      <trkpt lat="44.57456" lon="6.22424">
        <ele>982.604736</ele>
        <time>2011-05-19T09:18:24Z</time>
      </trkpt>
      <trkpt lat="44.5746" lon="6.22427">
        <ele>982.604736</ele>
        <time>2011-05-19T09:18:27Z</time>
      </trkpt>
      <trkpt lat="44.57465" lon="6.22431">
        <ele>984.527344</ele>
        <time>2011-05-19T09:18:32Z</time>
      </trkpt>
      <trkpt lat="44.57485" lon="6.2244">
        <ele>986.449951</ele>
        <time>2011-05-19T09:18:47Z</time>
      </trkpt>
      <trkpt lat="44.57492" lon="6.22442">
        <ele>986.449951</ele>
        <time>2011-05-19T09:18:51Z</time>
      </trkpt>
      <trkpt lat="44.57497" lon="6.22444">
        <ele>987.411133</ele>
        <time>2011-05-19T09:18:54Z</time>
      </trkpt>
      <trkpt lat="44.57521" lon="6.22452">
        <ele>989.814697</ele>
        <time>2011-05-19T09:19:11Z</time>
      </trkpt>
      <trkpt lat="44.57526" lon="6.22455">
        <ele>989.814697</ele>
        <time>2011-05-19T09:19:14Z</time>
      </trkpt>
      <trkpt lat="44.57542" lon="6.22464">
        <ele>991.737305</ele>
        <time>2011-05-19T09:19:25Z</time>
      </trkpt>
      <trkpt lat="44.57552" lon="6.22472">
        <ele>991.737305</ele>
        <time>2011-05-19T09:19:32Z</time>
      </trkpt>
      <trkpt lat="44.57571" lon="6.22493">
        <ele>995.58252</ele>
        <time>2011-05-19T09:19:47Z</time>
      </trkpt>
      <trkpt lat="44.57572" lon="6.22495">
        <ele>995.58252</ele>
        <time>2011-05-19T09:19:48Z</time>
      </trkpt>
      <trkpt lat="44.57592" lon="6.22511">
        <ele>997.505127</ele>
        <time>2011-05-19T09:20:04Z</time>
      </trkpt>
      <trkpt lat="44.57608" lon="6.22492">
        <ele>998.947021</ele>
        <time>2011-05-19T09:20:18Z</time>
      </trkpt>
      <trkpt lat="44.5761" lon="6.22475">
        <ele>1000.38916</ele>
        <time>2011-05-19T09:20:26Z</time>
      </trkpt>
      <trkpt lat="44.5761" lon="6.22471">
        <ele>998.947021</ele>
        <time>2011-05-19T09:20:28Z</time>
      </trkpt>
      <trkpt lat="44.57609" lon="6.22467">
        <ele>1000.38916</ele>
        <time>2011-05-19T09:20:30Z</time>
      </trkpt>
      <trkpt lat="44.57606" lon="6.22456">
        <ele>1001.350342</ele>
        <time>2011-05-19T09:20:35Z</time>
      </trkpt>
      <trkpt lat="44.57594" lon="6.22431">
        <ele>1002.792236</ele>
        <time>2011-05-19T09:20:49Z</time>
      </trkpt>
      <trkpt lat="44.57592" lon="6.22427">
        <ele>1003.272949</ele>
        <time>2011-05-19T09:20:55Z</time>
      </trkpt>
      <trkpt lat="44.5759" lon="6.22423">
        <ele>1004.715088</ele>
        <time>2011-05-19T09:20:59Z</time>
      </trkpt>
      <trkpt lat="44.57585" lon="6.22415">
        <ele>1005.195801</ele>
        <time>2011-05-19T09:21:03Z</time>
      </trkpt>
      <trkpt lat="44.57567" lon="6.22389">
        <ele>1008.079834</ele>
        <time>2011-05-19T09:21:21Z</time>
      </trkpt>
      <trkpt lat="44.57563" lon="6.22381">
        <ele>1009.041016</ele>
        <time>2011-05-19T09:21:28Z</time>
      </trkpt>
      <trkpt lat="44.57548" lon="6.22351">
        <ele>1011.444336</ele>
        <time>2011-05-19T09:21:45Z</time>
      </trkpt>
      <trkpt lat="44.57536" lon="6.22318">
        <ele>1013.366943</ele>
        <time>2011-05-19T09:22:01Z</time>
      </trkpt>
      <trkpt lat="44.57531" lon="6.2228">
        <ele>1016.250732</ele>
        <time>2011-05-19T09:22:18Z</time>
      </trkpt>
      <trkpt lat="44.57531" lon="6.22256">
        <ele>1017.692627</ele>
        <time>2011-05-19T09:22:29Z</time>
      </trkpt>
      <trkpt lat="44.57532" lon="6.22227">
        <ele>1020.096191</ele>
        <time>2011-05-19T09:22:44Z</time>
      </trkpt>
      <trkpt lat="44.57538" lon="6.22195">
        <ele>1022.499512</ele>
        <time>2011-05-19T09:22:59Z</time>
      </trkpt>
      <trkpt lat="44.57544" lon="6.22158">
        <ele>1024.422119</ele>
        <time>2011-05-19T09:23:18Z</time>
      </trkpt>
      <trkpt lat="44.57551" lon="6.22118">
        <ele>1027.786621</ele>
        <time>2011-05-19T09:23:38Z</time>
      </trkpt>
      <trkpt lat="44.57551" lon="6.22093">
        <ele>1029.709229</ele>
        <time>2011-05-19T09:23:51Z</time>
      </trkpt>
      <trkpt lat="44.57546" lon="6.22055">
        <ele>1031.631836</ele>
        <time>2011-05-19T09:24:10Z</time>
      </trkpt>
      <trkpt lat="44.57537" lon="6.22017">
        <ele>1034.035156</ele>
        <time>2011-05-19T09:24:27Z</time>
      </trkpt>
      <trkpt lat="44.57548" lon="6.22004">
        <ele>1034.515869</ele>
        <time>2011-05-19T09:24:33Z</time>
      </trkpt>
      <trkpt lat="44.5756" lon="6.22028">
        <ele>1036.438721</ele>
        <time>2011-05-19T09:24:45Z</time>
      </trkpt>
      <trkpt lat="44.57573" lon="6.22079">
        <ele>1038.842041</ele>
        <time>2011-05-19T09:25:10Z</time>
      </trkpt>
      <trkpt lat="44.57581" lon="6.221">
        <ele>1040.283936</ele>
        <time>2011-05-19T09:25:21Z</time>
      </trkpt>
      <trkpt lat="44.57594" lon="6.22126">
        <ele>1042.206543</ele>
        <time>2011-05-19T09:25:36Z</time>
      </trkpt>
      <trkpt lat="44.57614" lon="6.22149">
        <ele>1045.090332</ele>
        <time>2011-05-19T09:25:53Z</time>
      </trkpt>
      <trkpt lat="44.57623" lon="6.22158">
        <ele>1046.051758</ele>
        <time>2011-05-19T09:26:01Z</time>
      </trkpt>
      <trkpt lat="44.57628" lon="6.22164">
        <ele>1046.051758</ele>
        <time>2011-05-19T09:26:05Z</time>
      </trkpt>
      <trkpt lat="44.57645" lon="6.22182">
        <ele>1048.454834</ele>
        <time>2011-05-19T09:26:22Z</time>
      </trkpt>
      <trkpt lat="44.57666" lon="6.22206">
        <ele>1050.858154</ele>
        <time>2011-05-19T09:26:39Z</time>
      </trkpt>
      <trkpt lat="44.57672" lon="6.2222">
        <ele>1050.858154</ele>
        <time>2011-05-19T09:26:46Z</time>
      </trkpt>
      <trkpt lat="44.57676" lon="6.22233">
        <ele>1051.81958</ele>
        <time>2011-05-19T09:26:51Z</time>
      </trkpt>
      <trkpt lat="44.57679" lon="6.22266">
        <ele>1054.223145</ele>
        <time>2011-05-19T09:27:08Z</time>
      </trkpt>
      <trkpt lat="44.57679" lon="6.22277">
        <ele>1055.184326</ele>
        <time>2011-05-19T09:27:13Z</time>
      </trkpt>
      <trkpt lat="44.57679" lon="6.22302">
        <ele>1056.626221</ele>
        <time>2011-05-19T09:27:27Z</time>
      </trkpt>
      <trkpt lat="44.57681" lon="6.2232">
        <ele>1058.068359</ele>
        <time>2011-05-19T09:27:35Z</time>
      </trkpt>
      <trkpt lat="44.5769" lon="6.22337">
        <ele>1059.990723</ele>
        <time>2011-05-19T09:27:48Z</time>
      </trkpt>
      <trkpt lat="44.57697" lon="6.22337">
        <ele>1060.471436</ele>
        <time>2011-05-19T09:27:53Z</time>
      </trkpt>
      <trkpt lat="44.57709" lon="6.22305">
        <ele>1063.835938</ele>
        <time>2011-05-19T09:28:12Z</time>
      </trkpt>
      <trkpt lat="44.5771" lon="6.22291">
        <ele>1064.31665</ele>
        <time>2011-05-19T09:28:19Z</time>
      </trkpt>
      <trkpt lat="44.57711" lon="6.22283">
        <ele>1064.797363</ele>
        <time>2011-05-19T09:28:23Z</time>
      </trkpt>
      <trkpt lat="44.57716" lon="6.22245">
        <ele>1067.200684</ele>
        <time>2011-05-19T09:28:42Z</time>
      </trkpt>
      <trkpt lat="44.57724" lon="6.22215">
        <ele>1069.123535</ele>
        <time>2011-05-19T09:28:58Z</time>
      </trkpt>
      <trkpt lat="44.57724" lon="6.22213">
        <ele>1069.123535</ele>
        <time>2011-05-19T09:28:59Z</time>
      </trkpt>
      <trkpt lat="44.57725" lon="6.22209">
        <ele>1069.123535</ele>
        <time>2011-05-19T09:29:01Z</time>
      </trkpt>
      <trkpt lat="44.57729" lon="6.22196">
        <ele>1070.56543</ele>
        <time>2011-05-19T09:29:08Z</time>
      </trkpt>
      <trkpt lat="44.5774" lon="6.22164">
        <ele>1072.488037</ele>
        <time>2011-05-19T09:29:25Z</time>
      </trkpt>
      <trkpt lat="44.57748" lon="6.2213">
        <ele>1075.371826</ele>
        <time>2011-05-19T09:29:42Z</time>
      </trkpt>
      <trkpt lat="44.57751" lon="6.22098">
        <ele>1077.294678</ele>
        <time>2011-05-19T09:29:58Z</time>
      </trkpt>
      <trkpt lat="44.57752" lon="6.22062">
        <ele>1079.217041</ele>
        <time>2011-05-19T09:30:16Z</time>
      </trkpt>
      <trkpt lat="44.57754" lon="6.22021">
        <ele>1081.620361</ele>
        <time>2011-05-19T09:30:35Z</time>
      </trkpt>
      <trkpt lat="44.57756" lon="6.21986">
        <ele>1083.542969</ele>
        <time>2011-05-19T09:30:52Z</time>
      </trkpt>
      <trkpt lat="44.57765" lon="6.21954">
        <ele>1086.427246</ele>
        <time>2011-05-19T09:31:10Z</time>
      </trkpt>
      <trkpt lat="44.57767" lon="6.21949">
        <ele>1086.427246</ele>
        <time>2011-05-19T09:31:12Z</time>
      </trkpt>
      <trkpt lat="44.57776" lon="6.21927">
        <ele>1087.869141</ele>
        <time>2011-05-19T09:31:25Z</time>
      </trkpt>
      <trkpt lat="44.57787" lon="6.21901">
        <ele>1089.791748</ele>
        <time>2011-05-19T09:31:39Z</time>
      </trkpt>
      <trkpt lat="44.57797" lon="6.21881">
        <ele>1091.233643</ele>
        <time>2011-05-19T09:31:50Z</time>
      </trkpt>
      <trkpt lat="44.578" lon="6.21873">
        <ele>1091.714355</ele>
        <time>2011-05-19T09:31:54Z</time>
      </trkpt>
      <trkpt lat="44.57805" lon="6.21863">
        <ele>1091.714355</ele>
        <time>2011-05-19T09:31:59Z</time>
      </trkpt>
      <trkpt lat="44.57813" lon="6.2183">
        <ele>1094.598145</ele>
        <time>2011-05-19T09:32:16Z</time>
      </trkpt>
      <trkpt lat="44.57818" lon="6.21795">
        <ele>1096.520996</ele>
        <time>2011-05-19T09:32:32Z</time>
      </trkpt>
      <trkpt lat="44.57822" lon="6.21756">
        <ele>1097.482178</ele>
        <time>2011-05-19T09:32:47Z</time>
      </trkpt>
      <trkpt lat="44.57825" lon="6.21712">
        <ele>1098.924072</ele>
        <time>2011-05-19T09:33:05Z</time>
      </trkpt>
      <trkpt lat="44.57825" lon="6.2169">
        <ele>1099.885498</ele>
        <time>2011-05-19T09:33:12Z</time>
      </trkpt>
      <trkpt lat="44.57824" lon="6.21655">
        <ele>1100.846924</ele>
        <time>2011-05-19T09:33:27Z</time>
      </trkpt>
      <trkpt lat="44.57819" lon="6.21616">
        <ele>1103.250244</ele>
        <time>2011-05-19T09:33:44Z</time>
      </trkpt>
      <trkpt lat="44.57819" lon="6.21593">
        <ele>1105.653564</ele>
        <time>2011-05-19T09:33:54Z</time>
      </trkpt>
      <trkpt lat="44.5782" lon="6.21563">
        <ele>1106.134033</ele>
        <time>2011-05-19T09:34:08Z</time>
      </trkpt>
      <trkpt lat="44.57823" lon="6.21528">
        <ele>1107.095459</ele>
        <time>2011-05-19T09:34:31Z</time>
      </trkpt>
      <trkpt lat="44.57826" lon="6.2149">
        <ele>1107.095459</ele>
        <time>2011-05-19T09:34:40Z</time>
      </trkpt>
      <trkpt lat="44.57834" lon="6.21459">
        <ele>1109.498779</ele>
        <time>2011-05-19T09:34:55Z</time>
      </trkpt>
      <trkpt lat="44.57842" lon="6.21423">
        <ele>1112.382568</ele>
        <time>2011-05-19T09:35:14Z</time>
      </trkpt>
      <trkpt lat="44.5785" lon="6.21399">
        <ele>1114.305176</ele>
        <time>2011-05-19T09:35:26Z</time>
      </trkpt>
      <trkpt lat="44.57852" lon="6.21391">
        <ele>1114.305176</ele>
        <time>2011-05-19T09:35:31Z</time>
      </trkpt>
      <trkpt lat="44.57853" lon="6.21388">
        <ele>1114.785889</ele>
        <time>2011-05-19T09:35:33Z</time>
      </trkpt>
      <trkpt lat="44.57856" lon="6.2138">
        <ele>1115.747314</ele>
        <time>2011-05-19T09:35:37Z</time>
      </trkpt>
      <trkpt lat="44.57858" lon="6.21372">
        <ele>1115.266602</ele>
        <time>2011-05-19T09:35:41Z</time>
      </trkpt>
      <trkpt lat="44.5787" lon="6.21341">
        <ele>1117.189453</ele>
        <time>2011-05-19T09:35:57Z</time>
      </trkpt>
      <trkpt lat="44.57879" lon="6.21317">
        <ele>1119.592773</ele>
        <time>2011-05-19T09:36:10Z</time>
      </trkpt>
      <trkpt lat="44.57887" lon="6.21297">
        <ele>1121.034668</ele>
        <time>2011-05-19T09:36:20Z</time>
      </trkpt>
      <trkpt lat="44.57896" lon="6.21273">
        <ele>1122.476563</ele>
        <time>2011-05-19T09:36:34Z</time>
      </trkpt>
      <trkpt lat="44.57902" lon="6.2126">
        <ele>1123.918457</ele>
        <time>2011-05-19T09:36:41Z</time>
      </trkpt>
      <trkpt lat="44.57914" lon="6.21227">
        <ele>1124.879883</ele>
        <time>2011-05-19T09:36:57Z</time>
      </trkpt>
      <trkpt lat="44.57917" lon="6.21199">
        <ele>1126.321777</ele>
        <time>2011-05-19T09:37:10Z</time>
      </trkpt>
      <trkpt lat="44.5792" lon="6.21158">
        <ele>1127.763672</ele>
        <time>2011-05-19T09:37:28Z</time>
      </trkpt>
      <trkpt lat="44.5794" lon="6.21135">
        <ele>1130.647705</ele>
        <time>2011-05-19T09:37:44Z</time>
      </trkpt>
      <trkpt lat="44.5796" lon="6.2114">
        <ele>1130.647705</ele>
        <time>2011-05-19T09:37:54Z</time>
      </trkpt>
      <trkpt lat="44.5797" lon="6.21159">
        <ele>1132.570557</ele>
        <time>2011-05-19T09:38:05Z</time>
      </trkpt>
      <trkpt lat="44.57975" lon="6.2117">
        <ele>1134.012451</ele>
        <time>2011-05-19T09:38:11Z</time>
      </trkpt>
      <trkpt lat="44.57979" lon="6.2121">
        <ele>1136.415771</ele>
        <time>2011-05-19T09:38:29Z</time>
      </trkpt>
      <trkpt lat="44.5798" lon="6.21218">
        <ele>1137.376953</ele>
        <time>2011-05-19T09:38:33Z</time>
      </trkpt>
      <trkpt lat="44.57981" lon="6.21225">
        <ele>1136.89624</ele>
        <time>2011-05-19T09:38:37Z</time>
      </trkpt>
      <trkpt lat="44.57982" lon="6.21231">
        <ele>1137.376953</ele>
        <time>2011-05-19T09:38:40Z</time>
      </trkpt>
      <trkpt lat="44.57984" lon="6.2125">
        <ele>1138.819092</ele>
        <time>2011-05-19T09:38:49Z</time>
      </trkpt>
      <trkpt lat="44.57986" lon="6.21272">
        <ele>1140.260986</ele>
        <time>2011-05-19T09:38:59Z</time>
      </trkpt>
      <trkpt lat="44.5799" lon="6.21287">
        <ele>1141.222168</ele>
        <time>2011-05-19T09:39:06Z</time>
      </trkpt>
      <trkpt lat="44.57991" lon="6.21292">
        <ele>1141.702881</ele>
        <time>2011-05-19T09:39:08Z</time>
      </trkpt>
      <trkpt lat="44.57992" lon="6.21301">
        <ele>1141.222168</ele>
        <time>2011-05-19T09:39:12Z</time>
      </trkpt>
      <trkpt lat="44.57993" lon="6.21306">
        <ele>1143.144775</ele>
        <time>2011-05-19T09:39:15Z</time>
      </trkpt>
      <trkpt lat="44.58011" lon="6.21346">
        <ele>1145.548096</ele>
        <time>2011-05-19T09:39:38Z</time>
      </trkpt>
      <trkpt lat="44.58028" lon="6.21366">
        <ele>1147.470703</ele>
        <time>2011-05-19T09:39:52Z</time>
      </trkpt>
      <trkpt lat="44.58037" lon="6.21374">
        <ele>1147.951416</ele>
        <time>2011-05-19T09:39:59Z</time>
      </trkpt>
      <trkpt lat="44.58042" lon="6.21379">
        <ele>1148.912842</ele>
        <time>2011-05-19T09:40:03Z</time>
      </trkpt>
      <trkpt lat="44.58058" lon="6.21391">
        <ele>1149.874268</ele>
        <time>2011-05-19T09:40:15Z</time>
      </trkpt>
      <trkpt lat="44.58065" lon="6.21396">
        <ele>1150.35498</ele>
        <time>2011-05-19T09:40:21Z</time>
      </trkpt>
      <trkpt lat="44.58086" lon="6.21411">
        <ele>1151.796875</ele>
        <time>2011-05-19T09:40:35Z</time>
      </trkpt>
      <trkpt lat="44.58103" lon="6.21422">
        <ele>1154.200195</ele>
        <time>2011-05-19T09:40:49Z</time>
      </trkpt>
      <trkpt lat="44.58107" lon="6.21425">
        <ele>1154.680664</ele>
        <time>2011-05-19T09:40:55Z</time>
      </trkpt>
      <trkpt lat="44.5812" lon="6.21434">
        <ele>1156.122559</ele>
        <time>2011-05-19T09:41:03Z</time>
      </trkpt>
      <trkpt lat="44.58143" lon="6.21453">
        <ele>1158.04541</ele>
        <time>2011-05-19T09:41:20Z</time>
      </trkpt>
      <trkpt lat="44.58145" lon="6.21454">
        <ele>1158.04541</ele>
        <time>2011-05-19T09:41:21Z</time>
      </trkpt>
      <trkpt lat="44.58155" lon="6.21462">
        <ele>1158.04541</ele>
        <time>2011-05-19T09:41:29Z</time>
      </trkpt>
      <trkpt lat="44.58166" lon="6.21472">
        <ele>1159.487305</ele>
        <time>2011-05-19T09:41:38Z</time>
      </trkpt>
      <trkpt lat="44.58184" lon="6.21497">
        <ele>1161.890625</ele>
        <time>2011-05-19T09:41:54Z</time>
      </trkpt>
      <trkpt lat="44.58196" lon="6.21528">
        <ele>1164.293945</ele>
        <time>2011-05-19T09:42:11Z</time>
      </trkpt>
      <trkpt lat="44.58204" lon="6.21562">
        <ele>1166.697266</ele>
        <time>2011-05-19T09:42:29Z</time>
      </trkpt>
      <trkpt lat="44.58211" lon="6.216">
        <ele>1169.100586</ele>
        <time>2011-05-19T09:42:48Z</time>
      </trkpt>
      <trkpt lat="44.58218" lon="6.21638">
        <ele>1171.503662</ele>
        <time>2011-05-19T09:43:08Z</time>
      </trkpt>
      <trkpt lat="44.58225" lon="6.21675">
        <ele>1174.868408</ele>
        <time>2011-05-19T09:43:27Z</time>
      </trkpt>
      <trkpt lat="44.58226" lon="6.2169">
        <ele>1175.348877</ele>
        <time>2011-05-19T09:43:34Z</time>
      </trkpt>
      <trkpt lat="44.58229" lon="6.21726">
        <ele>1178.23291</ele>
        <time>2011-05-19T09:43:51Z</time>
      </trkpt>
      <trkpt lat="44.5823" lon="6.21741">
        <ele>1178.713623</ele>
        <time>2011-05-19T09:43:58Z</time>
      </trkpt>
      <trkpt lat="44.5823" lon="6.21772">
        <ele>1181.597656</ele>
        <time>2011-05-19T09:44:14Z</time>
      </trkpt>
      <trkpt lat="44.5823" lon="6.21774">
        <ele>1180.636475</ele>
        <time>2011-05-19T09:44:16Z</time>
      </trkpt>
      <trkpt lat="44.5823" lon="6.21774">
        <ele>1181.597656</ele>
        <time>2011-05-19T09:44:19Z</time>
      </trkpt>
      <trkpt lat="44.5823" lon="6.21786">
        <ele>1182.078369</ele>
        <time>2011-05-19T09:44:24Z</time>
      </trkpt>
      <trkpt lat="44.5823" lon="6.21786">
        <ele>1182.559082</ele>
        <time>2011-05-19T09:44:27Z</time>
      </trkpt>
      <trkpt lat="44.5823" lon="6.21801">
        <ele>1182.559082</ele>
        <time>2011-05-19T09:44:31Z</time>
      </trkpt>
      <trkpt lat="44.58228" lon="6.21826">
        <ele>1185.923584</ele>
        <time>2011-05-19T09:44:43Z</time>
      </trkpt>
      <trkpt lat="44.58225" lon="6.21852">
        <ele>1185.923584</ele>
        <time>2011-05-19T09:44:54Z</time>
      </trkpt>
      <trkpt lat="44.58222" lon="6.21863">
        <ele>1186.884766</ele>
        <time>2011-05-19T09:44:59Z</time>
      </trkpt>
      <trkpt lat="44.58222" lon="6.21863">
        <ele>1188.326904</ele>
        <time>2011-05-19T09:45:01Z</time>
      </trkpt>
      <trkpt lat="44.58205" lon="6.21898">
        <ele>1189.768799</ele>
        <time>2011-05-19T09:45:20Z</time>
      </trkpt>
      <trkpt lat="44.58196" lon="6.21915">
        <ele>1190.249512</ele>
        <time>2011-05-19T09:45:30Z</time>
      </trkpt>
      <trkpt lat="44.58196" lon="6.21924">
        <ele>1191.210693</ele>
        <time>2011-05-19T09:45:34Z</time>
      </trkpt>
      <trkpt lat="44.58207" lon="6.21936">
        <ele>1192.172119</ele>
        <time>2011-05-19T09:45:51Z</time>
      </trkpt>
      <trkpt lat="44.58207" lon="6.21936">
        <ele>1193.133301</ele>
        <time>2011-05-19T09:46:32Z</time>
      </trkpt>
      <trkpt lat="44.58207" lon="6.21936">
        <ele>1192.652832</ele>
        <time>2011-05-19T09:47:01Z</time>
      </trkpt>
      <trkpt lat="44.58213" lon="6.21931">
        <ele>1193.614014</ele>
        <time>2011-05-19T09:47:15Z</time>
      </trkpt>
      <trkpt lat="44.58213" lon="6.21931">
        <ele>1193.614014</ele>
        <time>2011-05-19T09:47:19Z</time>
      </trkpt>
      <trkpt lat="44.58227" lon="6.21899">
        <ele>1192.652832</ele>
        <time>2011-05-19T09:47:26Z</time>
      </trkpt>
      <trkpt lat="44.58228" lon="6.21896">
        <ele>1194.094727</ele>
        <time>2011-05-19T09:47:28Z</time>
      </trkpt>
      <trkpt lat="44.58231" lon="6.21891">
        <ele>1195.536621</ele>
        <time>2011-05-19T09:47:30Z</time>
      </trkpt>
      <trkpt lat="44.58233" lon="6.21889">
        <ele>1195.536621</ele>
        <time>2011-05-19T09:47:31Z</time>
      </trkpt>
      <trkpt lat="44.58236" lon="6.21883">
        <ele>1195.055908</ele>
        <time>2011-05-19T09:47:34Z</time>
      </trkpt>
      <trkpt lat="44.58239" lon="6.21877">
        <ele>1196.498291</ele>
        <time>2011-05-19T09:47:38Z</time>
      </trkpt>
      <trkpt lat="44.58245" lon="6.21868">
        <ele>1196.97876</ele>
        <time>2011-05-19T09:47:44Z</time>
      </trkpt>
      <trkpt lat="44.58252" lon="6.21857">
        <ele>1197.459473</ele>
        <time>2011-05-19T09:47:51Z</time>
      </trkpt>
      <trkpt lat="44.58257" lon="6.21849">
        <ele>1197.940186</ele>
        <time>2011-05-19T09:47:55Z</time>
      </trkpt>
      <trkpt lat="44.58277" lon="6.21818">
        <ele>1200.343506</ele>
        <time>2011-05-19T09:48:12Z</time>
      </trkpt>
      <trkpt lat="44.58288" lon="6.2178">
        <ele>1203.708008</ele>
        <time>2011-05-19T09:48:32Z</time>
      </trkpt>
      <trkpt lat="44.58288" lon="6.21778">
        <ele>1203.708008</ele>
        <time>2011-05-19T09:48:33Z</time>
      </trkpt>
      <trkpt lat="44.58294" lon="6.21741">
        <ele>1205.630615</ele>
        <time>2011-05-19T09:48:52Z</time>
      </trkpt>
      <trkpt lat="44.58298" lon="6.21702">
        <ele>1207.553223</ele>
        <time>2011-05-19T09:49:12Z</time>
      </trkpt>
      <trkpt lat="44.5831" lon="6.21677">
        <ele>1209.47583</ele>
        <time>2011-05-19T09:49:25Z</time>
      </trkpt>
      <trkpt lat="44.58327" lon="6.21696">
        <ele>1210.437012</ele>
        <time>2011-05-19T09:49:39Z</time>
      </trkpt>
      <trkpt lat="44.5833" lon="6.21709">
        <ele>1211.398438</ele>
        <time>2011-05-19T09:49:45Z</time>
      </trkpt>
      <trkpt lat="44.58332" lon="6.21717">
        <ele>1211.87915</ele>
        <time>2011-05-19T09:49:49Z</time>
      </trkpt>
      <trkpt lat="44.58338" lon="6.21744">
        <ele>1212.840576</ele>
        <time>2011-05-19T09:50:01Z</time>
      </trkpt>
      <trkpt lat="44.58341" lon="6.21764">
        <ele>1213.801758</ele>
        <time>2011-05-19T09:50:11Z</time>
      </trkpt>
      <trkpt lat="44.58346" lon="6.21803">
        <ele>1216.685791</ele>
        <time>2011-05-19T09:50:28Z</time>
      </trkpt>
      <trkpt lat="44.58345" lon="6.21838">
        <ele>1218.608398</ele>
        <time>2011-05-19T09:50:45Z</time>
      </trkpt>
      <trkpt lat="44.58344" lon="6.21862">
        <ele>1220.050293</ele>
        <time>2011-05-19T09:50:56Z</time>
      </trkpt>
      <trkpt lat="44.58343" lon="6.21903">
        <ele>1221.9729</ele>
        <time>2011-05-19T09:51:16Z</time>
      </trkpt>
      <trkpt lat="44.58342" lon="6.21922">
        <ele>1223.415039</ele>
        <time>2011-05-19T09:51:26Z</time>
      </trkpt>
      <trkpt lat="44.58342" lon="6.21929">
        <ele>1223.895508</ele>
        <time>2011-05-19T09:51:29Z</time>
      </trkpt>
      <trkpt lat="44.58343" lon="6.21938">
        <ele>1224.376221</ele>
        <time>2011-05-19T09:51:34Z</time>
      </trkpt>
      <trkpt lat="44.58345" lon="6.21948">
        <ele>1225.337402</ele>
        <time>2011-05-19T09:51:39Z</time>
      </trkpt>
      <trkpt lat="44.58348" lon="6.21959">
        <ele>1225.818115</ele>
        <time>2011-05-19T09:51:45Z</time>
      </trkpt>
      <trkpt lat="44.58351" lon="6.21966">
        <ele>1226.298828</ele>
        <time>2011-05-19T09:51:51Z</time>
      </trkpt>
      <trkpt lat="44.58358" lon="6.21977">
        <ele>1228.22168</ele>
        <time>2011-05-19T09:52:03Z</time>
      </trkpt>
      <trkpt lat="44.58358" lon="6.21977">
        <ele>1229.182861</ele>
        <time>2011-05-19T09:52:12Z</time>
      </trkpt>
      <trkpt lat="44.58385" lon="6.22017">
        <ele>1231.105713</ele>
        <time>2011-05-19T09:52:29Z</time>
      </trkpt>
      <trkpt lat="44.5839" lon="6.22027">
        <ele>1232.547607</ele>
        <time>2011-05-19T09:52:40Z</time>
      </trkpt>
      <trkpt lat="44.5839" lon="6.22027">
        <ele>1234.470215</ele>
        <time>2011-05-19T09:52:54Z</time>
      </trkpt>
      <trkpt lat="44.5839" lon="6.22027">
        <ele>1236.873291</ele>
        <time>2011-05-19T09:53:10Z</time>
      </trkpt>
      <trkpt lat="44.5839" lon="6.22027">
        <ele>1238.796143</ele>
        <time>2011-05-19T09:53:23Z</time>
      </trkpt>
      <trkpt lat="44.5848" lon="6.22046">
        <ele>1240.718506</ele>
        <time>2011-05-19T09:53:36Z</time>
      </trkpt>
      <trkpt lat="44.58494" lon="6.22052">
        <ele>1243.121826</ele>
        <time>2011-05-19T09:53:52Z</time>
      </trkpt>
      <trkpt lat="44.5851" lon="6.22057">
        <ele>1245.044678</ele>
        <time>2011-05-19T09:54:05Z</time>
      </trkpt>
      <trkpt lat="44.5853" lon="6.2205">
        <ele>1246.006104</ele>
        <time>2011-05-19T09:54:12Z</time>
      </trkpt>
      <trkpt lat="44.5855" lon="6.22052">
        <ele>1248.40918</ele>
        <time>2011-05-19T09:54:30Z</time>
      </trkpt>
      <trkpt lat="44.58571" lon="6.22065">
        <ele>1250.332031</ele>
        <time>2011-05-19T09:54:46Z</time>
      </trkpt>
      <trkpt lat="44.58596" lon="6.22058">
        <ele>1253.21582</ele>
        <time>2011-05-19T09:55:02Z</time>
      </trkpt>
      <trkpt lat="44.58605" lon="6.22064">
        <ele>1253.696533</ele>
        <time>2011-05-19T09:55:08Z</time>
      </trkpt>
      <trkpt lat="44.58607" lon="6.22069">
        <ele>1254.177246</ele>
        <time>2011-05-19T09:55:12Z</time>
      </trkpt>
      <trkpt lat="44.58618" lon="6.22074">
        <ele>1255.138428</ele>
        <time>2011-05-19T09:55:20Z</time>
      </trkpt>
      <trkpt lat="44.58626" lon="6.22078">
        <ele>1256.099609</ele>
        <time>2011-05-19T09:55:27Z</time>
      </trkpt>
      <trkpt lat="44.58628" lon="6.22079">
        <ele>1256.580322</ele>
        <time>2011-05-19T09:55:29Z</time>
      </trkpt>
      <trkpt lat="44.58634" lon="6.22077">
        <ele>1257.541748</ele>
        <time>2011-05-19T09:55:32Z</time>
      </trkpt>
      <trkpt lat="44.58643" lon="6.2208">
        <ele>1258.022461</ele>
        <time>2011-05-19T09:55:40Z</time>
      </trkpt>
      <trkpt lat="44.5865" lon="6.22081">
        <ele>1258.50293</ele>
        <time>2011-05-19T09:55:44Z</time>
      </trkpt>
      <trkpt lat="44.58652" lon="6.22083">
        <ele>1258.50293</ele>
        <time>2011-05-19T09:55:46Z</time>
      </trkpt>
      <trkpt lat="44.58659" lon="6.22086">
        <ele>1258.983643</ele>
        <time>2011-05-19T09:55:51Z</time>
      </trkpt>
      <trkpt lat="44.58666" lon="6.22089">
        <ele>1259.464355</ele>
        <time>2011-05-19T09:55:55Z</time>
      </trkpt>
      <trkpt lat="44.58678" lon="6.22094">
        <ele>1260.425781</ele>
        <time>2011-05-19T09:56:07Z</time>
      </trkpt>
      <trkpt lat="44.58689" lon="6.22094">
        <ele>1261.387207</ele>
        <time>2011-05-19T09:56:14Z</time>
      </trkpt>
      <trkpt lat="44.58702" lon="6.22094">
        <ele>1261.86792</ele>
        <time>2011-05-19T09:56:21Z</time>
      </trkpt>
      <trkpt lat="44.58706" lon="6.22095">
        <ele>1262.348389</ele>
        <time>2011-05-19T09:56:26Z</time>
      </trkpt>
      <trkpt lat="44.58733" lon="6.22085">
        <ele>1264.270996</ele>
        <time>2011-05-19T09:56:43Z</time>
      </trkpt>
      <trkpt lat="44.58742" lon="6.22084">
        <ele>1265.232422</ele>
        <time>2011-05-19T09:56:52Z</time>
      </trkpt>
      <trkpt lat="44.5875" lon="6.22082">
        <ele>1265.232422</ele>
        <time>2011-05-19T09:56:56Z</time>
      </trkpt>
      <trkpt lat="44.58754" lon="6.2208">
        <ele>1265.713135</ele>
        <time>2011-05-19T09:56:58Z</time>
      </trkpt>
      <trkpt lat="44.58782" lon="6.2207">
        <ele>1267.155029</ele>
        <time>2011-05-19T09:57:12Z</time>
      </trkpt>
      <trkpt lat="44.58799" lon="6.2207">
        <ele>1268.116211</ele>
        <time>2011-05-19T09:57:22Z</time>
      </trkpt>
      <trkpt lat="44.58808" lon="6.22061">
        <ele>1269.077637</ele>
        <time>2011-05-19T09:57:29Z</time>
      </trkpt>
      <trkpt lat="44.58811" lon="6.22055">
        <ele>1269.55835</ele>
        <time>2011-05-19T09:57:33Z</time>
      </trkpt>
      <trkpt lat="44.58825" lon="6.22056">
        <ele>1270.519531</ele>
        <time>2011-05-19T09:57:48Z</time>
      </trkpt>
      <trkpt lat="44.58831" lon="6.22058">
        <ele>1271.480713</ele>
        <time>2011-05-19T09:57:52Z</time>
      </trkpt>
      <trkpt lat="44.58862" lon="6.22067">
        <ele>1273.403564</ele>
        <time>2011-05-19T09:58:09Z</time>
      </trkpt>
      <trkpt lat="44.58881" lon="6.2208">
        <ele>1276.768311</ele>
        <time>2011-05-19T09:58:29Z</time>
      </trkpt>
      <trkpt lat="44.58908" lon="6.22088">
        <ele>1279.171387</ele>
        <time>2011-05-19T09:58:47Z</time>
      </trkpt>
      <trkpt lat="44.58937" lon="6.22091">
        <ele>1282.05542</ele>
        <time>2011-05-19T09:59:09Z</time>
      </trkpt>
      <trkpt lat="44.58957" lon="6.22102">
        <ele>1283.978027</ele>
        <time>2011-05-19T09:59:24Z</time>
      </trkpt>
      <trkpt lat="44.5896" lon="6.22104">
        <ele>1284.45874</ele>
        <time>2011-05-19T09:59:27Z</time>
      </trkpt>
      <trkpt lat="44.58979" lon="6.22108">
        <ele>1285.900635</ele>
        <time>2011-05-19T09:59:41Z</time>
      </trkpt>
      <trkpt lat="44.5898" lon="6.22109">
        <ele>1285.900635</ele>
        <time>2011-05-19T09:59:42Z</time>
      </trkpt>
      <trkpt lat="44.58984" lon="6.2211">
        <ele>1285.900635</ele>
        <time>2011-05-19T09:59:45Z</time>
      </trkpt>
      <trkpt lat="44.58986" lon="6.22111">
        <ele>1285.900635</ele>
        <time>2011-05-19T09:59:47Z</time>
      </trkpt>
      <trkpt lat="44.58995" lon="6.22114">
        <ele>1286.861816</ele>
        <time>2011-05-19T09:59:53Z</time>
      </trkpt>
      <trkpt lat="44.59026" lon="6.22135">
        <ele>1288.784668</ele>
        <time>2011-05-19T10:00:14Z</time>
      </trkpt>
      <trkpt lat="44.5904" lon="6.22142">
        <ele>1290.226563</ele>
        <time>2011-05-19T10:00:27Z</time>
      </trkpt>
      <trkpt lat="44.59053" lon="6.22144">
        <ele>1290.707031</ele>
        <time>2011-05-19T10:00:34Z</time>
      </trkpt>
      <trkpt lat="44.59069" lon="6.22157">
        <ele>1292.630127</ele>
        <time>2011-05-19T10:00:49Z</time>
      </trkpt>
      <trkpt lat="44.59086" lon="6.22162">
        <ele>1294.072021</ele>
        <time>2011-05-19T10:00:59Z</time>
      </trkpt>
      <trkpt lat="44.59099" lon="6.22186">
        <ele>1296.955811</ele>
        <time>2011-05-19T10:01:19Z</time>
      </trkpt>
      <trkpt lat="44.5911" lon="6.22204">
        <ele>1299.359131</ele>
        <time>2011-05-19T10:01:36Z</time>
      </trkpt>
      <trkpt lat="44.59109" lon="6.22214">
        <ele>1299.839844</ele>
        <time>2011-05-19T10:01:42Z</time>
      </trkpt>
      <trkpt lat="44.59126" lon="6.22239">
        <ele>1302.723633</ele>
        <time>2011-05-19T10:01:59Z</time>
      </trkpt>
      <trkpt lat="44.59127" lon="6.22242">
        <ele>1303.204346</ele>
        <time>2011-05-19T10:02:01Z</time>
      </trkpt>
      <trkpt lat="44.59142" lon="6.22244">
        <ele>1304.165771</ele>
        <time>2011-05-19T10:02:09Z</time>
      </trkpt>
      <trkpt lat="44.59159" lon="6.22253">
        <ele>1306.088135</ele>
        <time>2011-05-19T10:02:22Z</time>
      </trkpt>
      <trkpt lat="44.5916" lon="6.22258">
        <ele>1306.088135</ele>
        <time>2011-05-19T10:02:25Z</time>
      </trkpt>
      <trkpt lat="44.59173" lon="6.2228">
        <ele>1308.491699</ele>
        <time>2011-05-19T10:02:39Z</time>
      </trkpt>
      <trkpt lat="44.59174" lon="6.22289">
        <ele>1309.453125</ele>
        <time>2011-05-19T10:02:44Z</time>
      </trkpt>
      <trkpt lat="44.59175" lon="6.22299">
        <ele>1310.414307</ele>
        <time>2011-05-19T10:02:50Z</time>
      </trkpt>
      <trkpt lat="44.59177" lon="6.22311">
        <ele>1311.375732</ele>
        <time>2011-05-19T10:02:55Z</time>
      </trkpt>
      <trkpt lat="44.59176" lon="6.22321">
        <ele>1311.856445</ele>
        <time>2011-05-19T10:03:00Z</time>
      </trkpt>
      <trkpt lat="44.59177" lon="6.22334">
        <ele>1311.856445</ele>
        <time>2011-05-19T10:03:07Z</time>
      </trkpt>
      <trkpt lat="44.59177" lon="6.22339">
        <ele>1311.856445</ele>
        <time>2011-05-19T10:03:10Z</time>
      </trkpt>
      <trkpt lat="44.59178" lon="6.22354">
        <ele>1311.856445</ele>
        <time>2011-05-19T10:03:20Z</time>
      </trkpt>
      <trkpt lat="44.59177" lon="6.22367">
        <ele>1312.336914</ele>
        <time>2011-05-19T10:03:24Z</time>
      </trkpt>
      <trkpt lat="44.59163" lon="6.2239">
        <ele>1313.778809</ele>
        <time>2011-05-19T10:03:39Z</time>
      </trkpt>
      <trkpt lat="44.59157" lon="6.22404">
        <ele>1315.70166</ele>
        <time>2011-05-19T10:03:52Z</time>
      </trkpt>
      <trkpt lat="44.59172" lon="6.22416">
        <ele>1318.104736</ele>
        <time>2011-05-19T10:04:09Z</time>
      </trkpt>
      <trkpt lat="44.59188" lon="6.22405">
        <ele>1320.508057</ele>
        <time>2011-05-19T10:04:23Z</time>
      </trkpt>
      <trkpt lat="44.59192" lon="6.224">
        <ele>1320.508057</ele>
        <time>2011-05-19T10:04:28Z</time>
      </trkpt>
      <trkpt lat="44.59196" lon="6.22394">
        <ele>1320.98877</ele>
        <time>2011-05-19T10:04:32Z</time>
      </trkpt>
      <trkpt lat="44.59199" lon="6.22388">
        <ele>1321.469238</ele>
        <time>2011-05-19T10:04:36Z</time>
      </trkpt>
      <trkpt lat="44.59203" lon="6.2238">
        <ele>1321.469238</ele>
        <time>2011-05-19T10:04:40Z</time>
      </trkpt>
      <trkpt lat="44.59218" lon="6.22359">
        <ele>1322.430664</ele>
        <time>2011-05-19T10:04:54Z</time>
      </trkpt>
      <trkpt lat="44.59229" lon="6.22356">
        <ele>1324.353516</ele>
        <time>2011-05-19T10:05:07Z</time>
      </trkpt>
      <trkpt lat="44.5923" lon="6.22356">
        <ele>1324.353516</ele>
        <time>2011-05-19T10:05:08Z</time>
      </trkpt>
      <trkpt lat="44.59239" lon="6.22366">
        <ele>1325.314697</ele>
        <time>2011-05-19T10:05:15Z</time>
      </trkpt>
      <trkpt lat="44.59241" lon="6.22376">
        <ele>1326.276123</ele>
        <time>2011-05-19T10:05:20Z</time>
      </trkpt>
      <trkpt lat="44.59235" lon="6.22399">
        <ele>1327.718018</ele>
        <time>2011-05-19T10:05:34Z</time>
      </trkpt>
      <trkpt lat="44.59232" lon="6.22416">
        <ele>1330.121338</ele>
        <time>2011-05-19T10:05:47Z</time>
      </trkpt>
      <trkpt lat="44.59231" lon="6.22421">
        <ele>1330.602051</ele>
        <time>2011-05-19T10:05:51Z</time>
      </trkpt>
      <trkpt lat="44.59233" lon="6.22428">
        <ele>1331.563232</ele>
        <time>2011-05-19T10:05:56Z</time>
      </trkpt>
      <trkpt lat="44.59235" lon="6.22438">
        <ele>1332.524658</ele>
        <time>2011-05-19T10:06:03Z</time>
      </trkpt>
      <trkpt lat="44.59234" lon="6.22457">
        <ele>1334.447266</ele>
        <time>2011-05-19T10:06:18Z</time>
      </trkpt>
      <trkpt lat="44.59231" lon="6.22478">
        <ele>1337.331055</ele>
        <time>2011-05-19T10:06:34Z</time>
      </trkpt>
      <trkpt lat="44.5923" lon="6.22501">
        <ele>1339.734375</ele>
        <time>2011-05-19T10:06:48Z</time>
      </trkpt>
      <trkpt lat="44.59233" lon="6.22505">
        <ele>1340.695801</ele>
        <time>2011-05-19T10:06:53Z</time>
      </trkpt>
      <trkpt lat="44.59239" lon="6.22508">
        <ele>1340.695801</ele>
        <time>2011-05-19T10:06:57Z</time>
      </trkpt>
      <trkpt lat="44.59247" lon="6.22513">
        <ele>1342.137939</ele>
        <time>2011-05-19T10:07:07Z</time>
      </trkpt>
      <trkpt lat="44.59262" lon="6.22511">
        <ele>1344.060547</ele>
        <time>2011-05-19T10:07:23Z</time>
      </trkpt>
      <trkpt lat="44.5927" lon="6.22505">
        <ele>1345.021729</ele>
        <time>2011-05-19T10:07:31Z</time>
      </trkpt>
      <trkpt lat="44.59279" lon="6.22502">
        <ele>1345.983154</ele>
        <time>2011-05-19T10:07:35Z</time>
      </trkpt>
      <trkpt lat="44.59286" lon="6.22499">
        <ele>1345.502441</ele>
        <time>2011-05-19T10:07:40Z</time>
      </trkpt>
      <trkpt lat="44.59305" lon="6.22496">
        <ele>1347.425049</ele>
        <time>2011-05-19T10:07:58Z</time>
      </trkpt>
      <trkpt lat="44.59311" lon="6.22494">
        <ele>1348.866943</ele>
        <time>2011-05-19T10:08:06Z</time>
      </trkpt>
      <trkpt lat="44.59333" lon="6.22493">
        <ele>1350.309082</ele>
        <time>2011-05-19T10:08:26Z</time>
      </trkpt>
      <trkpt lat="44.59336" lon="6.22491">
        <ele>1351.750977</ele>
        <time>2011-05-19T10:08:31Z</time>
      </trkpt>
      <trkpt lat="44.5935" lon="6.22486">
        <ele>1351.750977</ele>
        <time>2011-05-19T10:08:43Z</time>
      </trkpt>
      <trkpt lat="44.59355" lon="6.22485">
        <ele>1353.192871</ele>
        <time>2011-05-19T10:08:46Z</time>
      </trkpt>
      <trkpt lat="44.59364" lon="6.22479">
        <ele>1353.192871</ele>
        <time>2011-05-19T10:08:50Z</time>
      </trkpt>
      <trkpt lat="44.59373" lon="6.22472">
        <ele>1353.673584</ele>
        <time>2011-05-19T10:08:59Z</time>
      </trkpt>
      <trkpt lat="44.59378" lon="6.22466">
        <ele>1354.154297</ele>
        <time>2011-05-19T10:09:03Z</time>
      </trkpt>
      <trkpt lat="44.59382" lon="6.22463">
        <ele>1354.154297</ele>
        <time>2011-05-19T10:09:06Z</time>
      </trkpt>
      <trkpt lat="44.59384" lon="6.22461">
        <ele>1354.634766</ele>
        <time>2011-05-19T10:09:08Z</time>
      </trkpt>
      <trkpt lat="44.594" lon="6.2245">
        <ele>1356.076904</ele>
        <time>2011-05-19T10:09:22Z</time>
      </trkpt>
      <trkpt lat="44.59403" lon="6.22443">
        <ele>1356.557617</ele>
        <time>2011-05-19T10:09:27Z</time>
      </trkpt>
      <trkpt lat="44.59414" lon="6.22437">
        <ele>1356.557617</ele>
        <time>2011-05-19T10:09:34Z</time>
      </trkpt>
      <trkpt lat="44.59418" lon="6.22433">
        <ele>1357.03833</ele>
        <time>2011-05-19T10:09:38Z</time>
      </trkpt>
      <trkpt lat="44.59425" lon="6.22426">
        <ele>1357.519043</ele>
        <time>2011-05-19T10:09:43Z</time>
      </trkpt>
      <trkpt lat="44.59433" lon="6.22413">
        <ele>1358.480225</ele>
        <time>2011-05-19T10:09:53Z</time>
      </trkpt>
      <trkpt lat="44.59434" lon="6.22405">
        <ele>1358.960938</ele>
        <time>2011-05-19T10:09:57Z</time>
      </trkpt>
      <trkpt lat="44.59438" lon="6.22392">
        <ele>1359.922119</ele>
        <time>2011-05-19T10:10:07Z</time>
      </trkpt>
      <trkpt lat="44.5944" lon="6.22372">
        <ele>1360.883545</ele>
        <time>2011-05-19T10:10:16Z</time>
      </trkpt>
      <trkpt lat="44.59441" lon="6.22339">
        <ele>1362.806152</ele>
        <time>2011-05-19T10:10:33Z</time>
      </trkpt>
      <trkpt lat="44.59445" lon="6.22337">
        <ele>1362.806152</ele>
        <time>2011-05-19T10:10:37Z</time>
      </trkpt>
      <trkpt lat="44.59451" lon="6.22344">
        <ele>1363.767334</ele>
        <time>2011-05-19T10:10:43Z</time>
      </trkpt>
      <trkpt lat="44.59453" lon="6.2236">
        <ele>1364.72876</ele>
        <time>2011-05-19T10:10:53Z</time>
      </trkpt>
      <trkpt lat="44.59457" lon="6.22377">
        <ele>1366.170654</ele>
        <time>2011-05-19T10:11:05Z</time>
      </trkpt>
      <trkpt lat="44.59455" lon="6.22393">
        <ele>1366.651367</ele>
        <time>2011-05-19T10:11:14Z</time>
      </trkpt>
      <trkpt lat="44.59461" lon="6.22409">
        <ele>1369.054688</ele>
        <time>2011-05-19T10:11:26Z</time>
      </trkpt>
      <trkpt lat="44.59462" lon="6.22417">
        <ele>1370.496582</ele>
        <time>2011-05-19T10:11:32Z</time>
      </trkpt>
      <trkpt lat="44.59464" lon="6.22418">
        <ele>1369.5354</ele>
        <time>2011-05-19T10:11:34Z</time>
      </trkpt>
      <trkpt lat="44.59469" lon="6.22422">
        <ele>1370.496582</ele>
        <time>2011-05-19T10:11:39Z</time>
      </trkpt>
      <trkpt lat="44.59474" lon="6.22435">
        <ele>1371.457764</ele>
        <time>2011-05-19T10:11:49Z</time>
      </trkpt>
      <trkpt lat="44.5948" lon="6.22444">
        <ele>1373.380859</ele>
        <time>2011-05-19T10:11:59Z</time>
      </trkpt>
      <trkpt lat="44.59493" lon="6.22459">
        <ele>1376.264648</ele>
        <time>2011-05-19T10:12:14Z</time>
      </trkpt>
      <trkpt lat="44.59493" lon="6.22465">
        <ele>1376.745361</ele>
        <time>2011-05-19T10:12:18Z</time>
      </trkpt>
      <trkpt lat="44.59494" lon="6.22478">
        <ele>1378.187256</ele>
        <time>2011-05-19T10:12:28Z</time>
      </trkpt>
      <trkpt lat="44.59495" lon="6.22483">
        <ele>1378.667969</ele>
        <time>2011-05-19T10:12:31Z</time>
      </trkpt>
      <trkpt lat="44.59495" lon="6.2249">
        <ele>1378.667969</ele>
        <time>2011-05-19T10:12:34Z</time>
      </trkpt>
      <trkpt lat="44.59496" lon="6.22495">
        <ele>1379.148438</ele>
        <time>2011-05-19T10:12:37Z</time>
      </trkpt>
      <trkpt lat="44.59499" lon="6.22522">
        <ele>1381.551758</ele>
        <time>2011-05-19T10:12:54Z</time>
      </trkpt>
      <trkpt lat="44.59504" lon="6.22544">
        <ele>1384.435791</ele>
        <time>2011-05-19T10:13:12Z</time>
      </trkpt>
      <trkpt lat="44.59511" lon="6.22566">
        <ele>1387.31958</ele>
        <time>2011-05-19T10:13:31Z</time>
      </trkpt>
      <trkpt lat="44.5951" lon="6.22584">
        <ele>1389.242432</ele>
        <time>2011-05-19T10:13:45Z</time>
      </trkpt>
      <trkpt lat="44.59508" lon="6.22607">
        <ele>1392.607178</ele>
        <time>2011-05-19T10:14:03Z</time>
      </trkpt>
      <trkpt lat="44.59502" lon="6.22623">
        <ele>1395.010254</ele>
        <time>2011-05-19T10:14:18Z</time>
      </trkpt>
      <trkpt lat="44.59501" lon="6.22627">
        <ele>1395.490967</ele>
        <time>2011-05-19T10:14:23Z</time>
      </trkpt>
      <trkpt lat="44.59498" lon="6.2263">
        <ele>1396.452393</ele>
        <time>2011-05-19T10:14:26Z</time>
      </trkpt>
      <trkpt lat="44.59491" lon="6.22644">
        <ele>1397.894287</ele>
        <time>2011-05-19T10:14:36Z</time>
      </trkpt>
      <trkpt lat="44.59483" lon="6.2266">
        <ele>1399.816895</ele>
        <time>2011-05-19T10:14:49Z</time>
      </trkpt>
      <trkpt lat="44.59477" lon="6.22676">
        <ele>1402.219971</ele>
        <time>2011-05-19T10:15:05Z</time>
      </trkpt>
      <trkpt lat="44.59476" lon="6.22679">
        <ele>1402.700684</ele>
        <time>2011-05-19T10:15:06Z</time>
      </trkpt>
      <trkpt lat="44.59469" lon="6.22696">
        <ele>1404.143066</ele>
        <time>2011-05-19T10:15:20Z</time>
      </trkpt>
      <trkpt lat="44.59466" lon="6.227">
        <ele>1405.104248</ele>
        <time>2011-05-19T10:15:24Z</time>
      </trkpt>
      <trkpt lat="44.5946" lon="6.22711">
        <ele>1406.546143</ele>
        <time>2011-05-19T10:15:33Z</time>
      </trkpt>
      <trkpt lat="44.59459" lon="6.22712">
        <ele>1407.026855</ele>
        <time>2011-05-19T10:15:35Z</time>
      </trkpt>
      <trkpt lat="44.59456" lon="6.22721">
        <ele>1408.46875</ele>
        <time>2011-05-19T10:15:44Z</time>
      </trkpt>
      <trkpt lat="44.59458" lon="6.22743">
        <ele>1409.430176</ele>
        <time>2011-05-19T10:15:57Z</time>
      </trkpt>
      <trkpt lat="44.59461" lon="6.22751">
        <ele>1410.391357</ele>
        <time>2011-05-19T10:16:03Z</time>
      </trkpt>
      <trkpt lat="44.59474" lon="6.22766">
        <ele>1413.275391</ele>
        <time>2011-05-19T10:16:21Z</time>
      </trkpt>
      <trkpt lat="44.59487" lon="6.22781">
        <ele>1414.236572</ele>
        <time>2011-05-19T10:16:34Z</time>
      </trkpt>
      <trkpt lat="44.59502" lon="6.22796">
        <ele>1417.120605</ele>
        <time>2011-05-19T10:16:52Z</time>
      </trkpt>
      <trkpt lat="44.59505" lon="6.22795">
        <ele>1416.639893</ele>
        <time>2011-05-19T10:17:27Z</time>
      </trkpt>
      <trkpt lat="44.59505" lon="6.22795">
        <ele>1417.601074</ele>
        <time>2011-05-19T10:18:02Z</time>
      </trkpt>
      <trkpt lat="44.59507" lon="6.22814">
        <ele>1417.601074</ele>
        <time>2011-05-19T10:19:51Z</time>
      </trkpt>
      <trkpt lat="44.59507" lon="6.22816">
        <ele>1417.601074</ele>
        <time>2011-05-19T10:19:52Z</time>
      </trkpt>
      <trkpt lat="44.59529" lon="6.22848">
        <ele>1420.966064</ele>
        <time>2011-05-19T10:20:23Z</time>
      </trkpt>
      <trkpt lat="44.59532" lon="6.22852">
        <ele>1421.446533</ele>
        <time>2011-05-19T10:20:26Z</time>
      </trkpt>
      <trkpt lat="44.59549" lon="6.22882">
        <ele>1423.849854</ele>
        <time>2011-05-19T10:20:48Z</time>
      </trkpt>
      <trkpt lat="44.59558" lon="6.22903">
        <ele>1425.772461</ele>
        <time>2011-05-19T10:21:06Z</time>
      </trkpt>
      <trkpt lat="44.59562" lon="6.22908">
        <ele>1425.772461</ele>
        <time>2011-05-19T10:21:13Z</time>
      </trkpt>
      <trkpt lat="44.59572" lon="6.22918">
        <ele>1427.2146</ele>
        <time>2011-05-19T10:21:21Z</time>
      </trkpt>
      <trkpt lat="44.59594" lon="6.22932">
        <ele>1429.617676</ele>
        <time>2011-05-19T10:21:43Z</time>
      </trkpt>
      <trkpt lat="44.59607" lon="6.22945">
        <ele>1432.501709</ele>
        <time>2011-05-19T10:21:59Z</time>
      </trkpt>
      <trkpt lat="44.59626" lon="6.22954">
        <ele>1435.385498</ele>
        <time>2011-05-19T10:22:21Z</time>
      </trkpt>
      <trkpt lat="44.59639" lon="6.22967">
        <ele>1437.30835</ele>
        <time>2011-05-19T10:22:34Z</time>
      </trkpt>
      <trkpt lat="44.59643" lon="6.2297">
        <ele>1438.269775</ele>
        <time>2011-05-19T10:22:40Z</time>
      </trkpt>
      <trkpt lat="44.59655" lon="6.22991">
        <ele>1440.672852</ele>
        <time>2011-05-19T10:22:59Z</time>
      </trkpt>
      <trkpt lat="44.59667" lon="6.23006">
        <ele>1442.595703</ele>
        <time>2011-05-19T10:23:14Z</time>
      </trkpt>
      <trkpt lat="44.59668" lon="6.23014">
        <ele>1444.037598</ele>
        <time>2011-05-19T10:23:19Z</time>
      </trkpt>
      <trkpt lat="44.59675" lon="6.23037">
        <ele>1445.960205</ele>
        <time>2011-05-19T10:23:37Z</time>
      </trkpt>
      <trkpt lat="44.59683" lon="6.23051">
        <ele>1447.882813</ele>
        <time>2011-05-19T10:23:51Z</time>
      </trkpt>
      <trkpt lat="44.59695" lon="6.23073">
        <ele>1448.843994</ele>
        <time>2011-05-19T10:24:09Z</time>
      </trkpt>
      <trkpt lat="44.597" lon="6.23099">
        <ele>1450.766602</ele>
        <time>2011-05-19T10:24:25Z</time>
      </trkpt>
      <trkpt lat="44.59711" lon="6.23131">
        <ele>1452.689453</ele>
        <time>2011-05-19T10:24:45Z</time>
      </trkpt>
      <trkpt lat="44.59721" lon="6.23156">
        <ele>1455.092773</ele>
        <time>2011-05-19T10:25:03Z</time>
      </trkpt>
      <trkpt lat="44.59738" lon="6.23166">
        <ele>1457.496094</ele>
        <time>2011-05-19T10:25:20Z</time>
      </trkpt>
      <trkpt lat="44.59745" lon="6.23158">
        <ele>1458.457275</ele>
        <time>2011-05-19T10:25:28Z</time>
      </trkpt>
      <trkpt lat="44.59755" lon="6.23143">
        <ele>1460.379883</ele>
        <time>2011-05-19T10:25:39Z</time>
      </trkpt>
      <trkpt lat="44.59757" lon="6.23138">
        <ele>1460.379883</ele>
        <time>2011-05-19T10:25:43Z</time>
      </trkpt>
      <trkpt lat="44.59765" lon="6.23127">
        <ele>1461.822021</ele>
        <time>2011-05-19T10:25:51Z</time>
      </trkpt>
      <trkpt lat="44.59767" lon="6.23116">
        <ele>1462.783203</ele>
        <time>2011-05-19T10:25:58Z</time>
      </trkpt>
      <trkpt lat="44.59768" lon="6.23091">
        <ele>1464.705811</ele>
        <time>2011-05-19T10:26:14Z</time>
      </trkpt>
      <trkpt lat="44.59768" lon="6.23089">
        <ele>1464.705811</ele>
        <time>2011-05-19T10:26:15Z</time>
      </trkpt>
      <trkpt lat="44.59767" lon="6.23083">
        <ele>1465.186523</ele>
        <time>2011-05-19T10:26:18Z</time>
      </trkpt>
      <trkpt lat="44.59778" lon="6.23076">
        <ele>1466.628418</ele>
        <time>2011-05-19T10:26:29Z</time>
      </trkpt>
      <trkpt lat="44.59783" lon="6.23079">
        <ele>1467.109131</ele>
        <time>2011-05-19T10:26:45Z</time>
      </trkpt>
      <trkpt lat="44.59784" lon="6.23079">
        <ele>1468.55127</ele>
        <time>2011-05-19T10:27:52Z</time>
      </trkpt>
      <trkpt lat="44.59784" lon="6.23082">
        <ele>1468.55127</ele>
        <time>2011-05-19T10:28:09Z</time>
      </trkpt>
      <trkpt lat="44.59785" lon="6.2308">
        <ele>1469.031982</ele>
        <time>2011-05-19T10:28:14Z</time>
      </trkpt>
      <trkpt lat="44.59789" lon="6.23087">
        <ele>1468.070557</ele>
        <time>2011-05-19T10:28:19Z</time>
      </trkpt>
      <trkpt lat="44.59791" lon="6.23096">
        <ele>1469.512695</ele>
        <time>2011-05-19T10:28:24Z</time>
      </trkpt>
      <trkpt lat="44.59793" lon="6.23103">
        <ele>1469.993164</ele>
        <time>2011-05-19T10:28:28Z</time>
      </trkpt>
      <trkpt lat="44.59796" lon="6.23109">
        <ele>1470.473877</ele>
        <time>2011-05-19T10:28:32Z</time>
      </trkpt>
      <trkpt lat="44.59795" lon="6.23115">
        <ele>1469.512695</ele>
        <time>2011-05-19T10:28:35Z</time>
      </trkpt>
      <trkpt lat="44.59794" lon="6.23121">
        <ele>1469.993164</ele>
        <time>2011-05-19T10:28:38Z</time>
      </trkpt>
      <trkpt lat="44.59795" lon="6.23127">
        <ele>1471.435059</ele>
        <time>2011-05-19T10:28:41Z</time>
      </trkpt>
      <trkpt lat="44.59795" lon="6.2313">
        <ele>1471.435059</ele>
        <time>2011-05-19T10:28:43Z</time>
      </trkpt>
      <trkpt lat="44.59804" lon="6.23148">
        <ele>1473.35791</ele>
        <time>2011-05-19T10:28:57Z</time>
      </trkpt>
      <trkpt lat="44.59803" lon="6.23155">
        <ele>1473.35791</ele>
        <time>2011-05-19T10:29:02Z</time>
      </trkpt>
      <trkpt lat="44.59805" lon="6.23187">
        <ele>1476.241699</ele>
        <time>2011-05-19T10:29:20Z</time>
      </trkpt>
      <trkpt lat="44.59809" lon="6.23212">
        <ele>1478.164307</ele>
        <time>2011-05-19T10:29:40Z</time>
      </trkpt>
      <trkpt lat="44.59822" lon="6.23226">
        <ele>1480.086914</ele>
        <time>2011-05-19T10:29:57Z</time>
      </trkpt>
      <trkpt lat="44.59825" lon="6.23229">
        <ele>1481.04834</ele>
        <time>2011-05-19T10:30:01Z</time>
      </trkpt>
      <trkpt lat="44.5984" lon="6.2325">
        <ele>1483.451416</ele>
        <time>2011-05-19T10:30:18Z</time>
      </trkpt>
      <trkpt lat="44.59841" lon="6.23259">
        <ele>1483.932129</ele>
        <time>2011-05-19T10:30:24Z</time>
      </trkpt>
      <trkpt lat="44.59844" lon="6.23263">
        <ele>1484.893799</ele>
        <time>2011-05-19T10:30:29Z</time>
      </trkpt>
      <trkpt lat="44.59849" lon="6.23279">
        <ele>1486.816162</ele>
        <time>2011-05-19T10:30:41Z</time>
      </trkpt>
      <trkpt lat="44.59849" lon="6.23284">
        <ele>1487.296875</ele>
        <time>2011-05-19T10:30:44Z</time>
      </trkpt>
      <trkpt lat="44.59857" lon="6.23303">
        <ele>1490.180908</ele>
        <time>2011-05-19T10:31:02Z</time>
      </trkpt>
      <trkpt lat="44.59873" lon="6.23313">
        <ele>1492.584229</ele>
        <time>2011-05-19T10:31:20Z</time>
      </trkpt>
      <trkpt lat="44.59878" lon="6.23313">
        <ele>1493.54541</ele>
        <time>2011-05-19T10:31:25Z</time>
      </trkpt>
      <trkpt lat="44.59903" lon="6.23321">
        <ele>1495.94873</ele>
        <time>2011-05-19T10:31:40Z</time>
      </trkpt>
      <trkpt lat="44.59902" lon="6.23344">
        <ele>1498.351807</ele>
        <time>2011-05-19T10:31:58Z</time>
      </trkpt>
      <trkpt lat="44.59897" lon="6.23366">
        <ele>1499.793945</ele>
        <time>2011-05-19T10:32:15Z</time>
      </trkpt>
      <trkpt lat="44.59899" lon="6.23396">
        <ele>1502.197266</ele>
        <time>2011-05-19T10:32:34Z</time>
      </trkpt>
      <trkpt lat="44.5991" lon="6.23419">
        <ele>1504.600586</ele>
        <time>2011-05-19T10:32:56Z</time>
      </trkpt>
      <trkpt lat="44.59903" lon="6.23462">
        <ele>1507.484619</ele>
        <time>2011-05-19T10:33:18Z</time>
      </trkpt>
      <trkpt lat="44.59921" lon="6.23477">
        <ele>1509.887695</ele>
        <time>2011-05-19T10:33:40Z</time>
      </trkpt>
      <trkpt lat="44.59928" lon="6.23481">
        <ele>1510.368408</ele>
        <time>2011-05-19T10:33:46Z</time>
      </trkpt>
      <trkpt lat="44.5993" lon="6.23482">
        <ele>1511.329834</ele>
        <time>2011-05-19T10:33:48Z</time>
      </trkpt>
      <trkpt lat="44.59947" lon="6.23502">
        <ele>1513.73291</ele>
        <time>2011-05-19T10:34:09Z</time>
      </trkpt>
      <trkpt lat="44.59946" lon="6.23517">
        <ele>1514.694336</ele>
        <time>2011-05-19T10:34:21Z</time>
      </trkpt>
      <trkpt lat="44.59934" lon="6.23525">
        <ele>1515.175049</ele>
        <time>2011-05-19T10:34:30Z</time>
      </trkpt>
      <trkpt lat="44.59929" lon="6.23528">
        <ele>1515.655762</ele>
        <time>2011-05-19T10:34:32Z</time>
      </trkpt>
      <trkpt lat="44.59917" lon="6.23529">
        <ele>1516.136475</ele>
        <time>2011-05-19T10:34:37Z</time>
      </trkpt>
      <trkpt lat="44.59913" lon="6.23528">
        <ele>1516.617188</ele>
        <time>2011-05-19T10:34:41Z</time>
      </trkpt>
      <trkpt lat="44.59899" lon="6.23527">
        <ele>1517.578369</ele>
        <time>2011-05-19T10:34:53Z</time>
      </trkpt>
      <trkpt lat="44.59877" lon="6.23528">
        <ele>1519.020508</ele>
        <time>2011-05-19T10:35:07Z</time>
      </trkpt>
      <trkpt lat="44.59866" lon="6.23537">
        <ele>1519.981689</ele>
        <time>2011-05-19T10:35:18Z</time>
      </trkpt>
      <trkpt lat="44.59868" lon="6.23546">
        <ele>1519.501221</ele>
        <time>2011-05-19T10:35:20Z</time>
      </trkpt>
      <trkpt lat="44.59869" lon="6.2357">
        <ele>1521.423584</ele>
        <time>2011-05-19T10:35:34Z</time>
      </trkpt>
      <trkpt lat="44.5987" lon="6.23572">
        <ele>1521.423584</ele>
        <time>2011-05-19T10:35:36Z</time>
      </trkpt>
      <trkpt lat="44.59869" lon="6.23581">
        <ele>1521.904297</ele>
        <time>2011-05-19T10:35:41Z</time>
      </trkpt>
      <trkpt lat="44.5988" lon="6.23596">
        <ele>1523.826904</ele>
        <time>2011-05-19T10:35:54Z</time>
      </trkpt>
      <trkpt lat="44.59881" lon="6.23603">
        <ele>1524.307617</ele>
        <time>2011-05-19T10:35:59Z</time>
      </trkpt>
      <trkpt lat="44.59889" lon="6.23626">
        <ele>1526.230225</ele>
        <time>2011-05-19T10:36:16Z</time>
      </trkpt>
      <trkpt lat="44.59881" lon="6.23635">
        <ele>1527.19165</ele>
        <time>2011-05-19T10:36:20Z</time>
      </trkpt>
      <trkpt lat="44.59879" lon="6.23636">
        <ele>1527.19165</ele>
        <time>2011-05-19T10:36:22Z</time>
      </trkpt>
      <trkpt lat="44.59875" lon="6.23637">
        <ele>1527.672119</ele>
        <time>2011-05-19T10:36:25Z</time>
      </trkpt>
      <trkpt lat="44.5986" lon="6.23644">
        <ele>1528.633545</ele>
        <time>2011-05-19T10:36:38Z</time>
      </trkpt>
      <trkpt lat="44.59841" lon="6.23655">
        <ele>1530.556152</ele>
        <time>2011-05-19T10:36:53Z</time>
      </trkpt>
      <trkpt lat="44.59833" lon="6.23671">
        <ele>1531.517334</ele>
        <time>2011-05-19T10:37:05Z</time>
      </trkpt>
      <trkpt lat="44.59833" lon="6.23671">
        <ele>1531.517334</ele>
        <time>2011-05-19T10:37:06Z</time>
      </trkpt>
      <trkpt lat="44.5983" lon="6.23692">
        <ele>1533.440186</ele>
        <time>2011-05-19T10:37:17Z</time>
      </trkpt>
      <trkpt lat="44.59835" lon="6.23717">
        <ele>1535.362793</ele>
        <time>2011-05-19T10:37:29Z</time>
      </trkpt>
      <trkpt lat="44.59835" lon="6.23723">
        <ele>1535.362793</ele>
        <time>2011-05-19T10:37:32Z</time>
      </trkpt>
      <trkpt lat="44.59843" lon="6.23732">
        <ele>1536.804688</ele>
        <time>2011-05-19T10:37:41Z</time>
      </trkpt>
      <trkpt lat="44.59855" lon="6.23755">
        <ele>1539.688721</ele>
        <time>2011-05-19T10:38:03Z</time>
      </trkpt>
      <trkpt lat="44.59857" lon="6.23762">
        <ele>1541.611328</ele>
        <time>2011-05-19T10:38:17Z</time>
      </trkpt>
      <trkpt lat="44.59853" lon="6.23764">
        <ele>1541.611328</ele>
        <time>2011-05-19T10:38:18Z</time>
      </trkpt>
      <trkpt lat="44.59842" lon="6.23771">
        <ele>1542.572754</ele>
        <time>2011-05-19T10:38:25Z</time>
      </trkpt>
      <trkpt lat="44.5983" lon="6.23776">
        <ele>1543.053223</ele>
        <time>2011-05-19T10:38:33Z</time>
      </trkpt>
      <trkpt lat="44.59824" lon="6.23801">
        <ele>1544.495117</ele>
        <time>2011-05-19T10:38:50Z</time>
      </trkpt>
      <trkpt lat="44.59824" lon="6.23822">
        <ele>1545.456543</ele>
        <time>2011-05-19T10:39:00Z</time>
      </trkpt>
      <trkpt lat="44.59832" lon="6.23845">
        <ele>1548.340576</ele>
        <time>2011-05-19T10:39:20Z</time>
      </trkpt>
      <trkpt lat="44.59845" lon="6.23864">
        <ele>1551.705322</ele>
        <time>2011-05-19T10:39:40Z</time>
      </trkpt>
      <trkpt lat="44.59864" lon="6.23871">
        <ele>1554.108643</ele>
        <time>2011-05-19T10:40:02Z</time>
      </trkpt>
      <trkpt lat="44.59857" lon="6.23903">
        <ele>1556.031006</ele>
        <time>2011-05-19T10:40:18Z</time>
      </trkpt>
      <trkpt lat="44.59826" lon="6.23921">
        <ele>1557.473145</ele>
        <time>2011-05-19T10:40:40Z</time>
      </trkpt>
      <trkpt lat="44.59815" lon="6.23928">
        <ele>1559.395752</ele>
        <time>2011-05-19T10:40:52Z</time>
      </trkpt>
      <trkpt lat="44.59812" lon="6.23958">
        <ele>1561.318359</ele>
        <time>2011-05-19T10:41:13Z</time>
      </trkpt>
      <trkpt lat="44.59813" lon="6.23993">
        <ele>1564.202393</ele>
        <time>2011-05-19T10:41:35Z</time>
      </trkpt>
      <trkpt lat="44.59809" lon="6.24019">
        <ele>1565.644531</ele>
        <time>2011-05-19T10:41:48Z</time>
      </trkpt>
      <trkpt lat="44.59808" lon="6.24023">
        <ele>1566.125</ele>
        <time>2011-05-19T10:41:51Z</time>
      </trkpt>
      <trkpt lat="44.59815" lon="6.24043">
        <ele>1568.52832</ele>
        <time>2011-05-19T10:42:04Z</time>
      </trkpt>
      <trkpt lat="44.59823" lon="6.2406">
        <ele>1569.970215</ele>
        <time>2011-05-19T10:42:20Z</time>
      </trkpt>
      <trkpt lat="44.59823" lon="6.24068">
        <ele>1570.931641</ele>
        <time>2011-05-19T10:42:26Z</time>
      </trkpt>
      <trkpt lat="44.59823" lon="6.24076">
        <ele>1571.412109</ele>
        <time>2011-05-19T10:42:31Z</time>
      </trkpt>
      <trkpt lat="44.59823" lon="6.2408">
        <ele>1571.892822</ele>
        <time>2011-05-19T10:42:34Z</time>
      </trkpt>
      <trkpt lat="44.59834" lon="6.24094">
        <ele>1573.334961</ele>
        <time>2011-05-19T10:42:48Z</time>
      </trkpt>
      <trkpt lat="44.59832" lon="6.24114">
        <ele>1575.738037</ele>
        <time>2011-05-19T10:43:04Z</time>
      </trkpt>
      <trkpt lat="44.5983" lon="6.24125">
        <ele>1577.660645</ele>
        <time>2011-05-19T10:43:16Z</time>
      </trkpt>
      <trkpt lat="44.59828" lon="6.24141">
        <ele>1579.102539</ele>
        <time>2011-05-19T10:43:25Z</time>
      </trkpt>
      <trkpt lat="44.5984" lon="6.2416">
        <ele>1580.544922</ele>
        <time>2011-05-19T10:43:42Z</time>
      </trkpt>
      <trkpt lat="44.59855" lon="6.24179">
        <ele>1583.909424</ele>
        <time>2011-05-19T10:44:01Z</time>
      </trkpt>
      <trkpt lat="44.59846" lon="6.24199">
        <ele>1585.832031</ele>
        <time>2011-05-19T10:44:16Z</time>
      </trkpt>
      <trkpt lat="44.59845" lon="6.24206">
        <ele>1585.832031</ele>
        <time>2011-05-19T10:44:20Z</time>
      </trkpt>
      <trkpt lat="44.59828" lon="6.24245">
        <ele>1589.196533</ele>
        <time>2011-05-19T10:44:41Z</time>
      </trkpt>
      <trkpt lat="44.59825" lon="6.24273">
        <ele>1592.080566</ele>
        <time>2011-05-19T10:45:02Z</time>
      </trkpt>
      <trkpt lat="44.59834" lon="6.24303">
        <ele>1594.483643</ele>
        <time>2011-05-19T10:45:19Z</time>
      </trkpt>
      <trkpt lat="44.59834" lon="6.2432">
        <ele>1596.887207</ele>
        <time>2011-05-19T10:45:32Z</time>
      </trkpt>
      <trkpt lat="44.59835" lon="6.24335">
        <ele>1598.809814</ele>
        <time>2011-05-19T10:45:49Z</time>
      </trkpt>
      <trkpt lat="44.59836" lon="6.24335">
        <ele>1599.290527</ele>
        <time>2011-05-19T10:46:27Z</time>
      </trkpt>
      <trkpt lat="44.59836" lon="6.24336">
        <ele>1600.251953</ele>
        <time>2011-05-19T10:47:34Z</time>
      </trkpt>
      <trkpt lat="44.59835" lon="6.24336">
        <ele>1598.809814</ele>
        <time>2011-05-19T10:48:07Z</time>
      </trkpt>
      <trkpt lat="44.59834" lon="6.24335">
        <ele>1600.732422</ele>
        <time>2011-05-19T10:48:40Z</time>
      </trkpt>
      <trkpt lat="44.59838" lon="6.24343">
        <ele>1600.732422</ele>
        <time>2011-05-19T10:49:09Z</time>
      </trkpt>
      <trkpt lat="44.5984" lon="6.24347">
        <ele>1600.732422</ele>
        <time>2011-05-19T10:49:17Z</time>
      </trkpt>
      <trkpt lat="44.59845" lon="6.24362">
        <ele>1603.616455</ele>
        <time>2011-05-19T10:49:30Z</time>
      </trkpt>
      <trkpt lat="44.59851" lon="6.24394">
        <ele>1606.980957</ele>
        <time>2011-05-19T10:49:52Z</time>
      </trkpt>
      <trkpt lat="44.59864" lon="6.24426">
        <ele>1609.864746</ele>
        <time>2011-05-19T10:50:18Z</time>
      </trkpt>
      <trkpt lat="44.59874" lon="6.24443">
        <ele>1612.749023</ele>
        <time>2011-05-19T10:50:36Z</time>
      </trkpt>
      <trkpt lat="44.5989" lon="6.24458">
        <ele>1614.671631</ele>
        <time>2011-05-19T10:50:55Z</time>
      </trkpt>
      <trkpt lat="44.59891" lon="6.24459">
        <ele>1614.671631</ele>
        <time>2011-05-19T10:50:56Z</time>
      </trkpt>
      <trkpt lat="44.59893" lon="6.24473">
        <ele>1617.074951</ele>
        <time>2011-05-19T10:51:17Z</time>
      </trkpt>
      <trkpt lat="44.59911" lon="6.24472">
        <ele>1618.997559</ele>
        <time>2011-05-19T10:51:41Z</time>
      </trkpt>
      <trkpt lat="44.59915" lon="6.24476">
        <ele>1619.95874</ele>
        <time>2011-05-19T10:52:27Z</time>
      </trkpt>
      <trkpt lat="44.59929" lon="6.2447">
        <ele>1620.439453</ele>
        <time>2011-05-19T10:52:44Z</time>
      </trkpt>
      <trkpt lat="44.59933" lon="6.24491">
        <ele>1622.842773</ele>
        <time>2011-05-19T10:52:58Z</time>
      </trkpt>
      <trkpt lat="44.59934" lon="6.24491">
        <ele>1622.362061</ele>
        <time>2011-05-19T10:53:22Z</time>
      </trkpt>
      <trkpt lat="44.59937" lon="6.24492">
        <ele>1621.400635</ele>
        <time>2011-05-19T10:54:16Z</time>
      </trkpt>
      <trkpt lat="44.59938" lon="6.24495">
        <ele>1621.881348</ele>
        <time>2011-05-19T10:54:21Z</time>
      </trkpt>
      <trkpt lat="44.59955" lon="6.24499">
        <ele>1623.323486</ele>
        <time>2011-05-19T10:54:41Z</time>
      </trkpt>
      <trkpt lat="44.59972" lon="6.245">
        <ele>1626.687988</ele>
        <time>2011-05-19T10:55:01Z</time>
      </trkpt>
      <trkpt lat="44.59992" lon="6.24501">
        <ele>1629.091309</ele>
        <time>2011-05-19T10:55:20Z</time>
      </trkpt>
      <trkpt lat="44.60009" lon="6.24535">
        <ele>1631.494629</ele>
        <time>2011-05-19T10:55:44Z</time>
      </trkpt>
      <trkpt lat="44.6001" lon="6.24543">
        <ele>1631.975342</ele>
        <time>2011-05-19T10:55:53Z</time>
      </trkpt>
      <trkpt lat="44.60001" lon="6.2456">
        <ele>1633.417236</ele>
        <time>2011-05-19T10:56:07Z</time>
      </trkpt>
      <trkpt lat="44.59981" lon="6.24579">
        <ele>1635.339844</ele>
        <time>2011-05-19T10:56:25Z</time>
      </trkpt>
      <trkpt lat="44.59971" lon="6.2459">
        <ele>1636.30127</ele>
        <time>2011-05-19T10:56:37Z</time>
      </trkpt>
      <trkpt lat="44.59953" lon="6.24594">
        <ele>1638.70459</ele>
        <time>2011-05-19T10:56:53Z</time>
      </trkpt>
      <trkpt lat="44.59928" lon="6.24598">
        <ele>1640.626953</ele>
        <time>2011-05-19T10:57:12Z</time>
      </trkpt>
      <trkpt lat="44.59924" lon="6.246">
        <ele>1641.107666</ele>
        <time>2011-05-19T10:57:15Z</time>
      </trkpt>
      <trkpt lat="44.5991" lon="6.24615">
        <ele>1642.069092</ele>
        <time>2011-05-19T10:57:28Z</time>
      </trkpt>
      <trkpt lat="44.59907" lon="6.24619">
        <ele>1642.069092</ele>
        <time>2011-05-19T10:57:32Z</time>
      </trkpt>
      <trkpt lat="44.59902" lon="6.24624">
        <ele>1643.030273</ele>
        <time>2011-05-19T10:57:36Z</time>
      </trkpt>
      <trkpt lat="44.59897" lon="6.24633">
        <ele>1642.549805</ele>
        <time>2011-05-19T10:57:43Z</time>
      </trkpt>
      <trkpt lat="44.59886" lon="6.24647">
        <ele>1643.510986</ele>
        <time>2011-05-19T10:57:52Z</time>
      </trkpt>
      <trkpt lat="44.59861" lon="6.24653">
        <ele>1644.472412</ele>
        <time>2011-05-19T10:58:07Z</time>
      </trkpt>
      <trkpt lat="44.59837" lon="6.2466">
        <ele>1644.472412</ele>
        <time>2011-05-19T10:58:20Z</time>
      </trkpt>
      <trkpt lat="44.59817" lon="6.24656">
        <ele>1643.510986</ele>
        <time>2011-05-19T10:58:29Z</time>
      </trkpt>
      <trkpt lat="44.59796" lon="6.24633">
        <ele>1640.626953</ele>
        <time>2011-05-19T10:58:40Z</time>
      </trkpt>
      <trkpt lat="44.59781" lon="6.24617">
        <ele>1639.665771</ele>
        <time>2011-05-19T10:58:52Z</time>
      </trkpt>
      <trkpt lat="44.59782" lon="6.24608">
        <ele>1639.665771</ele>
        <time>2011-05-19T10:59:14Z</time>
      </trkpt>
      <trkpt lat="44.5978" lon="6.24596">
        <ele>1639.185059</ele>
        <time>2011-05-19T10:59:18Z</time>
      </trkpt>
      <trkpt lat="44.59781" lon="6.24581">
        <ele>1640.626953</ele>
        <time>2011-05-19T10:59:30Z</time>
      </trkpt>
      <trkpt lat="44.59786" lon="6.2458">
        <ele>1640.626953</ele>
        <time>2011-05-19T10:59:49Z</time>
      </trkpt>
      <trkpt lat="44.59789" lon="6.24581">
        <ele>1642.549805</ele>
        <time>2011-05-19T11:01:36Z</time>
      </trkpt>
      <trkpt lat="44.59781" lon="6.24577">
        <ele>1640.146484</ele>
        <time>2011-05-19T11:02:18Z</time>
      </trkpt>
      <trkpt lat="44.59772" lon="6.24569">
        <ele>1640.146484</ele>
        <time>2011-05-19T11:02:20Z</time>
      </trkpt>
      <trkpt lat="44.59767" lon="6.24564">
        <ele>1641.588379</ele>
        <time>2011-05-19T11:02:22Z</time>
      </trkpt>
      <trkpt lat="44.59735" lon="6.24537">
        <ele>1641.107666</ele>
        <time>2011-05-19T11:02:36Z</time>
      </trkpt>
      <trkpt lat="44.59683" lon="6.24503">
        <ele>1638.223877</ele>
        <time>2011-05-19T11:02:48Z</time>
      </trkpt>
      <trkpt lat="44.59632" lon="6.24455">
        <ele>1637.743164</ele>
        <time>2011-05-19T11:03:01Z</time>
      </trkpt>
      <trkpt lat="44.596" lon="6.24384">
        <ele>1636.30127</ele>
        <time>2011-05-19T11:03:14Z</time>
      </trkpt>
      <trkpt lat="44.59589" lon="6.24376">
        <ele>1636.781738</ele>
        <time>2011-05-19T11:03:21Z</time>
      </trkpt>
      <trkpt lat="44.5958" lon="6.24343">
        <ele>1634.859375</ele>
        <time>2011-05-19T11:03:30Z</time>
      </trkpt>
      <trkpt lat="44.59584" lon="6.24375">
        <ele>1634.378662</ele>
        <time>2011-05-19T11:03:33Z</time>
      </trkpt>
      <trkpt lat="44.59566" lon="6.24263">
        <ele>1633.417236</ele>
        <time>2011-05-19T11:03:44Z</time>
      </trkpt>
      <trkpt lat="44.59565" lon="6.24216">
        <ele>1632.456055</ele>
        <time>2011-05-19T11:03:56Z</time>
      </trkpt>
      <trkpt lat="44.59565" lon="6.24213">
        <ele>1631.975342</ele>
        <time>2011-05-19T11:04:09Z</time>
      </trkpt>
      <trkpt lat="44.59565" lon="6.24213">
        <ele>1631.975342</ele>
        <time>2011-05-19T11:04:19Z</time>
      </trkpt>
      <trkpt lat="44.59551" lon="6.24166">
        <ele>1631.975342</ele>
        <time>2011-05-19T11:04:25Z</time>
      </trkpt>
      <trkpt lat="44.59543" lon="6.241">
        <ele>1631.494629</ele>
        <time>2011-05-19T11:04:41Z</time>
      </trkpt>
      <trkpt lat="44.59541" lon="6.24095">
        <ele>1631.01416</ele>
        <time>2011-05-19T11:04:42Z</time>
      </trkpt>
      <trkpt lat="44.59523" lon="6.2406">
        <ele>1630.533447</ele>
        <time>2011-05-19T11:04:51Z</time>
      </trkpt>
      <trkpt lat="44.59501" lon="6.24015">
        <ele>1629.572021</ele>
        <time>2011-05-19T11:05:01Z</time>
      </trkpt>
      <trkpt lat="44.59499" lon="6.23947">
        <ele>1628.61084</ele>
        <time>2011-05-19T11:05:12Z</time>
      </trkpt>
      <trkpt lat="44.59496" lon="6.23924">
        <ele>1627.64917</ele>
        <time>2011-05-19T11:05:17Z</time>
      </trkpt>
      <trkpt lat="44.59466" lon="6.23832">
        <ele>1625.24585</ele>
        <time>2011-05-19T11:05:29Z</time>
      </trkpt>
      <trkpt lat="44.59454" lon="6.23816">
        <ele>1624.284668</ele>
        <time>2011-05-19T11:05:32Z</time>
      </trkpt>
      <trkpt lat="44.59398" lon="6.23755">
        <ele>1620.920166</ele>
        <time>2011-05-19T11:05:45Z</time>
      </trkpt>
      <trkpt lat="44.59385" lon="6.23754">
        <ele>1617.55542</ele>
        <time>2011-05-19T11:05:54Z</time>
      </trkpt>
      <trkpt lat="44.59385" lon="6.23754">
        <ele>1617.55542</ele>
        <time>2011-05-19T11:05:55Z</time>
      </trkpt>
      <trkpt lat="44.5937" lon="6.23748">
        <ele>1616.594238</ele>
        <time>2011-05-19T11:06:04Z</time>
      </trkpt>
      <trkpt lat="44.59379" lon="6.23691">
        <ele>1616.594238</ele>
        <time>2011-05-19T11:06:09Z</time>
      </trkpt>
      <trkpt lat="44.59374" lon="6.23644">
        <ele>1613.710205</ele>
        <time>2011-05-19T11:06:21Z</time>
      </trkpt>
      <trkpt lat="44.59374" lon="6.23644">
        <ele>1612.749023</ele>
        <time>2011-05-19T11:06:32Z</time>
      </trkpt>
      <trkpt lat="44.59375" lon="6.23608">
        <ele>1611.306885</ele>
        <time>2011-05-19T11:06:39Z</time>
      </trkpt>
      <trkpt lat="44.59377" lon="6.23596">
        <ele>1611.306885</ele>
        <time>2011-05-19T11:06:42Z</time>
      </trkpt>
      <trkpt lat="44.59381" lon="6.2359">
        <ele>1610.826172</ele>
        <time>2011-05-19T11:06:46Z</time>
      </trkpt>
      <trkpt lat="44.59399" lon="6.2356">
        <ele>1608.422852</ele>
        <time>2011-05-19T11:06:58Z</time>
      </trkpt>
      <trkpt lat="44.59411" lon="6.23501">
        <ele>1607.46167</ele>
        <time>2011-05-19T11:07:09Z</time>
      </trkpt>
      <trkpt lat="44.5941" lon="6.23487">
        <ele>1606.500244</ele>
        <time>2011-05-19T11:07:11Z</time>
      </trkpt>
      <trkpt lat="44.59397" lon="6.2344">
        <ele>1605.05835</ele>
        <time>2011-05-19T11:07:21Z</time>
      </trkpt>
      <trkpt lat="44.594" lon="6.23424">
        <ele>1604.577637</ele>
        <time>2011-05-19T11:07:25Z</time>
      </trkpt>
      <trkpt lat="44.59404" lon="6.23408">
        <ele>1603.616455</ele>
        <time>2011-05-19T11:07:29Z</time>
      </trkpt>
      <trkpt lat="44.5941" lon="6.23371">
        <ele>1603.135742</ele>
        <time>2011-05-19T11:07:37Z</time>
      </trkpt>
      <trkpt lat="44.59399" lon="6.23329">
        <ele>1602.655029</ele>
        <time>2011-05-19T11:07:50Z</time>
      </trkpt>
      <trkpt lat="44.59399" lon="6.23329">
        <ele>1602.655029</ele>
        <time>2011-05-19T11:08:01Z</time>
      </trkpt>
      <trkpt lat="44.59399" lon="6.23329">
        <ele>1602.655029</ele>
        <time>2011-05-19T11:08:11Z</time>
      </trkpt>
      <trkpt lat="44.59367" lon="6.23308">
        <ele>1601.693848</ele>
        <time>2011-05-19T11:08:21Z</time>
      </trkpt>
      <trkpt lat="44.59333" lon="6.23276">
        <ele>1600.251953</ele>
        <time>2011-05-19T11:08:34Z</time>
      </trkpt>
      <trkpt lat="44.59298" lon="6.23237">
        <ele>1598.809814</ele>
        <time>2011-05-19T11:08:47Z</time>
      </trkpt>
      <trkpt lat="44.59282" lon="6.23217">
        <ele>1598.329102</ele>
        <time>2011-05-19T11:08:54Z</time>
      </trkpt>
      <trkpt lat="44.59261" lon="6.2317">
        <ele>1595.925781</ele>
        <time>2011-05-19T11:09:04Z</time>
      </trkpt>
      <trkpt lat="44.59231" lon="6.23112">
        <ele>1594.964355</ele>
        <time>2011-05-19T11:09:15Z</time>
      </trkpt>
      <trkpt lat="44.59227" lon="6.23104">
        <ele>1594.964355</ele>
        <time>2011-05-19T11:09:24Z</time>
      </trkpt>
      <trkpt lat="44.59227" lon="6.23104">
        <ele>1594.964355</ele>
        <time>2011-05-19T11:09:48Z</time>
      </trkpt>
      <trkpt lat="44.59215" lon="6.23082">
        <ele>1593.522461</ele>
        <time>2011-05-19T11:09:51Z</time>
      </trkpt>
      <trkpt lat="44.59186" lon="6.23034">
        <ele>1592.080566</ele>
        <time>2011-05-19T11:10:02Z</time>
      </trkpt>
      <trkpt lat="44.59156" lon="6.2306">
        <ele>1590.638428</ele>
        <time>2011-05-19T11:10:14Z</time>
      </trkpt>
      <trkpt lat="44.59127" lon="6.23056">
        <ele>1589.677246</ele>
        <time>2011-05-19T11:10:24Z</time>
      </trkpt>
      <trkpt lat="44.59081" lon="6.23033">
        <ele>1589.196533</ele>
        <time>2011-05-19T11:10:36Z</time>
      </trkpt>
      <trkpt lat="44.5904" lon="6.23">
        <ele>1588.235352</ele>
        <time>2011-05-19T11:10:50Z</time>
      </trkpt>
      <trkpt lat="44.58995" lon="6.22981">
        <ele>1586.793213</ele>
        <time>2011-05-19T11:11:04Z</time>
      </trkpt>
      <trkpt lat="44.58939" lon="6.22966">
        <ele>1584.87085</ele>
        <time>2011-05-19T11:11:17Z</time>
      </trkpt>
      <trkpt lat="44.58884" lon="6.22978">
        <ele>1583.909424</ele>
        <time>2011-05-19T11:11:30Z</time>
      </trkpt>
      <trkpt lat="44.58862" lon="6.2302">
        <ele>1583.428711</ele>
        <time>2011-05-19T11:11:41Z</time>
      </trkpt>
      <trkpt lat="44.58876" lon="6.23053">
        <ele>1581.986816</ele>
        <time>2011-05-19T11:11:51Z</time>
      </trkpt>
      <trkpt lat="44.5888" lon="6.23076">
        <ele>1581.506104</ele>
        <time>2011-05-19T11:11:56Z</time>
      </trkpt>
      <trkpt lat="44.58895" lon="6.23131">
        <ele>1579.583252</ele>
        <time>2011-05-19T11:12:08Z</time>
      </trkpt>
      <trkpt lat="44.58918" lon="6.23182">
        <ele>1578.62207</ele>
        <time>2011-05-19T11:12:20Z</time>
      </trkpt>
      <trkpt lat="44.58936" lon="6.23227">
        <ele>1577.660645</ele>
        <time>2011-05-19T11:12:32Z</time>
      </trkpt>
      <trkpt lat="44.58939" lon="6.23234">
        <ele>1577.180176</ele>
        <time>2011-05-19T11:12:34Z</time>
      </trkpt>
      <trkpt lat="44.58923" lon="6.23291">
        <ele>1577.660645</ele>
        <time>2011-05-19T11:12:38Z</time>
      </trkpt>
      <trkpt lat="44.58911" lon="6.23338">
        <ele>1576.21875</ele>
        <time>2011-05-19T11:12:46Z</time>
      </trkpt>
      <trkpt lat="44.58917" lon="6.23391">
        <ele>1575.738037</ele>
        <time>2011-05-19T11:12:58Z</time>
      </trkpt>
      <trkpt lat="44.58931" lon="6.23449">
        <ele>1574.296143</ele>
        <time>2011-05-19T11:13:04Z</time>
      </trkpt>
      <trkpt lat="44.58924" lon="6.23535">
        <ele>1573.334961</ele>
        <time>2011-05-19T11:13:18Z</time>
      </trkpt>
      <trkpt lat="44.58906" lon="6.23566">
        <ele>1574.776855</ele>
        <time>2011-05-19T11:13:28Z</time>
      </trkpt>
      <trkpt lat="44.58872" lon="6.23579">
        <ele>1576.699463</ele>
        <time>2011-05-19T11:13:42Z</time>
      </trkpt>
      <trkpt lat="44.58872" lon="6.23579">
        <ele>1577.180176</ele>
        <time>2011-05-19T11:13:46Z</time>
      </trkpt>
      <trkpt lat="44.58828" lon="6.23581">
        <ele>1578.62207</ele>
        <time>2011-05-19T11:14:02Z</time>
      </trkpt>
      <trkpt lat="44.58796" lon="6.23585">
        <ele>1580.064209</ele>
        <time>2011-05-19T11:14:17Z</time>
      </trkpt>
      <trkpt lat="44.58789" lon="6.23586">
        <ele>1580.544922</ele>
        <time>2011-05-19T11:14:20Z</time>
      </trkpt>
      <trkpt lat="44.58784" lon="6.23586">
        <ele>1581.025635</ele>
        <time>2011-05-19T11:14:23Z</time>
      </trkpt>
      <trkpt lat="44.58755" lon="6.23585">
        <ele>1581.986816</ele>
        <time>2011-05-19T11:14:39Z</time>
      </trkpt>
      <trkpt lat="44.58725" lon="6.23574">
        <ele>1583.428711</ele>
        <time>2011-05-19T11:14:52Z</time>
      </trkpt>
      <trkpt lat="44.58698" lon="6.23565">
        <ele>1585.351318</ele>
        <time>2011-05-19T11:15:07Z</time>
      </trkpt>
      <trkpt lat="44.58666" lon="6.23546">
        <ele>1587.273926</ele>
        <time>2011-05-19T11:15:23Z</time>
      </trkpt>
      <trkpt lat="44.58638" lon="6.23527">
        <ele>1588.716064</ele>
        <time>2011-05-19T11:15:39Z</time>
      </trkpt>
      <trkpt lat="44.58608" lon="6.23505">
        <ele>1590.638428</ele>
        <time>2011-05-19T11:15:55Z</time>
      </trkpt>
      <trkpt lat="44.58575" lon="6.23478">
        <ele>1592.080566</ele>
        <time>2011-05-19T11:16:12Z</time>
      </trkpt>
      <trkpt lat="44.58548" lon="6.23472">
        <ele>1594.003174</ele>
        <time>2011-05-19T11:16:26Z</time>
      </trkpt>
      <trkpt lat="44.58511" lon="6.23483">
        <ele>1595.925781</ele>
        <time>2011-05-19T11:16:43Z</time>
      </trkpt>
      <trkpt lat="44.58485" lon="6.23498">
        <ele>1597.36792</ele>
        <time>2011-05-19T11:16:56Z</time>
      </trkpt>
      <trkpt lat="44.58474" lon="6.23507">
        <ele>1598.809814</ele>
        <time>2011-05-19T11:17:03Z</time>
      </trkpt>
      <trkpt lat="44.58436" lon="6.23532">
        <ele>1598.809814</ele>
        <time>2011-05-19T11:17:20Z</time>
      </trkpt>
      <trkpt lat="44.5843" lon="6.23538">
        <ele>1599.290527</ele>
        <time>2011-05-19T11:17:25Z</time>
      </trkpt>
      <trkpt lat="44.5843" lon="6.23538">
        <ele>1598.809814</ele>
        <time>2011-05-19T11:17:40Z</time>
      </trkpt>
      <trkpt lat="44.5843" lon="6.23538">
        <ele>1598.329102</ele>
        <time>2011-05-19T11:17:57Z</time>
      </trkpt>
      <trkpt lat="44.5843" lon="6.23538">
        <ele>1597.848633</ele>
        <time>2011-05-19T11:18:19Z</time>
      </trkpt>
      <trkpt lat="44.5843" lon="6.23538">
        <ele>1598.329102</ele>
        <time>2011-05-19T11:18:34Z</time>
      </trkpt>
      <trkpt lat="44.5843" lon="6.23538">
        <ele>1597.848633</ele>
        <time>2011-05-19T11:20:53Z</time>
      </trkpt>
      <trkpt lat="44.58421" lon="6.23568">
        <ele>1595.925781</ele>
        <time>2011-05-19T11:21:00Z</time>
      </trkpt>
      <trkpt lat="44.58423" lon="6.23574">
        <ele>1595.445068</ele>
        <time>2011-05-19T11:21:03Z</time>
      </trkpt>
      <trkpt lat="44.58434" lon="6.23587">
        <ele>1593.041748</ele>
        <time>2011-05-19T11:21:07Z</time>
      </trkpt>
      <trkpt lat="44.58463" lon="6.23616">
        <ele>1590.157959</ele>
        <time>2011-05-19T11:21:17Z</time>
      </trkpt>
      <trkpt lat="44.58481" lon="6.23641">
        <ele>1586.793213</ele>
        <time>2011-05-19T11:21:25Z</time>
      </trkpt>
      <trkpt lat="44.58487" lon="6.2365">
        <ele>1586.312744</ele>
        <time>2011-05-19T11:21:28Z</time>
      </trkpt>
      <trkpt lat="44.585" lon="6.23671">
        <ele>1583.428711</ele>
        <time>2011-05-19T11:21:35Z</time>
      </trkpt>
      <trkpt lat="44.58503" lon="6.23676">
        <ele>1582.947998</ele>
        <time>2011-05-19T11:21:39Z</time>
      </trkpt>
      <trkpt lat="44.58534" lon="6.23711">
        <ele>1579.583252</ele>
        <time>2011-05-19T11:21:48Z</time>
      </trkpt>
      <trkpt lat="44.58552" lon="6.23753">
        <ele>1577.180176</ele>
        <time>2011-05-19T11:22:00Z</time>
      </trkpt>
      <trkpt lat="44.58559" lon="6.23778">
        <ele>1575.738037</ele>
        <time>2011-05-19T11:22:05Z</time>
      </trkpt>
      <trkpt lat="44.58564" lon="6.23793">
        <ele>1573.334961</ele>
        <time>2011-05-19T11:22:14Z</time>
      </trkpt>
      <trkpt lat="44.58571" lon="6.23815">
        <ele>1571.892822</ele>
        <time>2011-05-19T11:22:25Z</time>
      </trkpt>
      <trkpt lat="44.58605" lon="6.23878">
        <ele>1569.970215</ele>
        <time>2011-05-19T11:22:32Z</time>
      </trkpt>
      <trkpt lat="44.58603" lon="6.23918">
        <ele>1569.970215</ele>
        <time>2011-05-19T11:22:46Z</time>
      </trkpt>
      <trkpt lat="44.58603" lon="6.23921">
        <ele>1570.450928</ele>
        <time>2011-05-19T11:23:05Z</time>
      </trkpt>
      <trkpt lat="44.58603" lon="6.23921">
        <ele>1570.931641</ele>
        <time>2011-05-19T11:23:18Z</time>
      </trkpt>
      <trkpt lat="44.58603" lon="6.23921">
        <ele>1569.489746</ele>
        <time>2011-05-19T11:23:20Z</time>
      </trkpt>
      <trkpt lat="44.58604" lon="6.23924">
        <ele>1569.489746</ele>
        <time>2011-05-19T11:23:57Z</time>
      </trkpt>
      <trkpt lat="44.58603" lon="6.23924">
        <ele>1569.489746</ele>
        <time>2011-05-19T11:24:09Z</time>
      </trkpt>
      <trkpt lat="44.58594" lon="6.23938">
        <ele>1567.566895</ele>
        <time>2011-05-19T11:24:19Z</time>
      </trkpt>
      <trkpt lat="44.58592" lon="6.2394">
        <ele>1566.605713</ele>
        <time>2011-05-19T11:24:23Z</time>
      </trkpt>
      <trkpt lat="44.5859" lon="6.23946">
        <ele>1567.566895</ele>
        <time>2011-05-19T11:24:25Z</time>
      </trkpt>
      <trkpt lat="44.58587" lon="6.23964">
        <ele>1564.683105</ele>
        <time>2011-05-19T11:24:28Z</time>
      </trkpt>
      <trkpt lat="44.58569" lon="6.24004">
        <ele>1560.356934</ele>
        <time>2011-05-19T11:24:37Z</time>
      </trkpt>
      <trkpt lat="44.58567" lon="6.24008">
        <ele>1560.356934</ele>
        <time>2011-05-19T11:24:38Z</time>
      </trkpt>
      <trkpt lat="44.5854" lon="6.24037">
        <ele>1556.992432</ele>
        <time>2011-05-19T11:24:46Z</time>
      </trkpt>
      <trkpt lat="44.58524" lon="6.24083">
        <ele>1555.069824</ele>
        <time>2011-05-19T11:24:53Z</time>
      </trkpt>
      <trkpt lat="44.5851" lon="6.24123">
        <ele>1552.185791</ele>
        <time>2011-05-19T11:25:01Z</time>
      </trkpt>
      <trkpt lat="44.58499" lon="6.24148">
        <ele>1549.302002</ele>
        <time>2011-05-19T11:25:06Z</time>
      </trkpt>
      <trkpt lat="44.58473" lon="6.2418">
        <ele>1545.937256</ele>
        <time>2011-05-19T11:25:15Z</time>
      </trkpt>
      <trkpt lat="44.5847" lon="6.24184">
        <ele>1545.937256</ele>
        <time>2011-05-19T11:25:16Z</time>
      </trkpt>
      <trkpt lat="44.58456" lon="6.24203">
        <ele>1543.533936</ele>
        <time>2011-05-19T11:25:21Z</time>
      </trkpt>
      <trkpt lat="44.58451" lon="6.24209">
        <ele>1542.092041</ele>
        <time>2011-05-19T11:25:23Z</time>
      </trkpt>
      <trkpt lat="44.58416" lon="6.24219">
        <ele>1538.727539</ele>
        <time>2011-05-19T11:25:34Z</time>
      </trkpt>
      <trkpt lat="44.58384" lon="6.2423">
        <ele>1537.2854</ele>
        <time>2011-05-19T11:25:46Z</time>
      </trkpt>
      <trkpt lat="44.58375" lon="6.24271">
        <ele>1534.882324</ele>
        <time>2011-05-19T11:25:57Z</time>
      </trkpt>
      <trkpt lat="44.58384" lon="6.24308">
        <ele>1531.998047</ele>
        <time>2011-05-19T11:26:06Z</time>
      </trkpt>
      <trkpt lat="44.58394" lon="6.24354">
        <ele>1528.633545</ele>
        <time>2011-05-19T11:26:16Z</time>
      </trkpt>
      <trkpt lat="44.58392" lon="6.24363">
        <ele>1528.633545</ele>
        <time>2011-05-19T11:26:17Z</time>
      </trkpt>
      <trkpt lat="44.58363" lon="6.24391">
        <ele>1524.307617</ele>
        <time>2011-05-19T11:26:25Z</time>
      </trkpt>
      <trkpt lat="44.5836" lon="6.24392">
        <ele>1524.307617</ele>
        <time>2011-05-19T11:26:26Z</time>
      </trkpt>
      <trkpt lat="44.58341" lon="6.24385">
        <ele>1520.943115</ele>
        <time>2011-05-19T11:26:32Z</time>
      </trkpt>
      <trkpt lat="44.58315" lon="6.24366">
        <ele>1518.539795</ele>
        <time>2011-05-19T11:26:40Z</time>
      </trkpt>
      <trkpt lat="44.58292" lon="6.24336">
        <ele>1515.175049</ele>
        <time>2011-05-19T11:26:48Z</time>
      </trkpt>
      <trkpt lat="44.58286" lon="6.24322">
        <ele>1514.213623</ele>
        <time>2011-05-19T11:26:51Z</time>
      </trkpt>
      <trkpt lat="44.58283" lon="6.24317">
        <ele>1513.73291</ele>
        <time>2011-05-19T11:26:52Z</time>
      </trkpt>
      <trkpt lat="44.58255" lon="6.24287">
        <ele>1510.368408</ele>
        <time>2011-05-19T11:27:03Z</time>
      </trkpt>
      <trkpt lat="44.58255" lon="6.24287">
        <ele>1510.368408</ele>
        <time>2011-05-19T11:27:04Z</time>
      </trkpt>
      <trkpt lat="44.58255" lon="6.24287">
        <ele>1509.887695</ele>
        <time>2011-05-19T11:27:26Z</time>
      </trkpt>
      <trkpt lat="44.58255" lon="6.24287">
        <ele>1509.407227</ele>
        <time>2011-05-19T11:28:20Z</time>
      </trkpt>
      <trkpt lat="44.58238" lon="6.24299">
        <ele>1507.003906</ele>
        <time>2011-05-19T11:28:33Z</time>
      </trkpt>
      <trkpt lat="44.58223" lon="6.24313">
        <ele>1505.081299</ele>
        <time>2011-05-19T11:28:49Z</time>
      </trkpt>
      <trkpt lat="44.58214" lon="6.24334">
        <ele>1501.716797</ele>
        <time>2011-05-19T11:28:58Z</time>
      </trkpt>
      <trkpt lat="44.58213" lon="6.24342">
        <ele>1500.755371</ele>
        <time>2011-05-19T11:29:00Z</time>
      </trkpt>
      <trkpt lat="44.58213" lon="6.24373">
        <ele>1496.909912</ele>
        <time>2011-05-19T11:29:09Z</time>
      </trkpt>
      <trkpt lat="44.58215" lon="6.24412">
        <ele>1492.584229</ele>
        <time>2011-05-19T11:29:18Z</time>
      </trkpt>
      <trkpt lat="44.58215" lon="6.24417">
        <ele>1492.584229</ele>
        <time>2011-05-19T11:29:19Z</time>
      </trkpt>
      <trkpt lat="44.58217" lon="6.24453">
        <ele>1489.219482</ele>
        <time>2011-05-19T11:29:28Z</time>
      </trkpt>
      <trkpt lat="44.5822" lon="6.24467">
        <ele>1487.777588</ele>
        <time>2011-05-19T11:29:31Z</time>
      </trkpt>
      <trkpt lat="44.58223" lon="6.24501">
        <ele>1484.413086</ele>
        <time>2011-05-19T11:29:38Z</time>
      </trkpt>
      <trkpt lat="44.58223" lon="6.24511">
        <ele>1483.451416</ele>
        <time>2011-05-19T11:29:40Z</time>
      </trkpt>
      <trkpt lat="44.58222" lon="6.24521">
        <ele>1482.009521</ele>
        <time>2011-05-19T11:29:42Z</time>
      </trkpt>
      <trkpt lat="44.58215" lon="6.24554">
        <ele>1478.64502</ele>
        <time>2011-05-19T11:29:49Z</time>
      </trkpt>
      <trkpt lat="44.5821" lon="6.24568">
        <ele>1477.203125</ele>
        <time>2011-05-19T11:29:52Z</time>
      </trkpt>
      <trkpt lat="44.58204" lon="6.24578">
        <ele>1475.760986</ele>
        <time>2011-05-19T11:29:54Z</time>
      </trkpt>
      <trkpt lat="44.58195" lon="6.24595">
        <ele>1472.877197</ele>
        <time>2011-05-19T11:29:59Z</time>
      </trkpt>
      <trkpt lat="44.58193" lon="6.24605">
        <ele>1471.435059</ele>
        <time>2011-05-19T11:30:01Z</time>
      </trkpt>
      <trkpt lat="44.58183" lon="6.24641">
        <ele>1468.070557</ele>
        <time>2011-05-19T11:30:10Z</time>
      </trkpt>
      <trkpt lat="44.58175" lon="6.2466">
        <ele>1466.147705</ele>
        <time>2011-05-19T11:30:15Z</time>
      </trkpt>
      <trkpt lat="44.58173" lon="6.24663">
        <ele>1465.667236</ele>
        <time>2011-05-19T11:30:16Z</time>
      </trkpt>
      <trkpt lat="44.5817" lon="6.24681">
        <ele>1463.744385</ele>
        <time>2011-05-19T11:30:21Z</time>
      </trkpt>
      <trkpt lat="44.58172" lon="6.24695">
        <ele>1462.30249</ele>
        <time>2011-05-19T11:30:24Z</time>
      </trkpt>
      <trkpt lat="44.58173" lon="6.24731">
        <ele>1458.937988</ele>
        <time>2011-05-19T11:30:31Z</time>
      </trkpt>
      <trkpt lat="44.58166" lon="6.24772">
        <ele>1456.053955</ele>
        <time>2011-05-19T11:30:41Z</time>
      </trkpt>
      <trkpt lat="44.58152" lon="6.24809">
        <ele>1455.573486</ele>
        <time>2011-05-19T11:30:50Z</time>
      </trkpt>
      <trkpt lat="44.58152" lon="6.24809">
        <ele>1456.534668</ele>
        <time>2011-05-19T11:30:57Z</time>
      </trkpt>
      <trkpt lat="44.58152" lon="6.24809">
        <ele>1455.092773</ele>
        <time>2011-05-19T11:31:00Z</time>
      </trkpt>
      <trkpt lat="44.58152" lon="6.24809">
        <ele>1457.015381</ele>
        <time>2011-05-19T11:31:06Z</time>
      </trkpt>
      <trkpt lat="44.58152" lon="6.24809">
        <ele>1455.092773</ele>
        <time>2011-05-19T11:31:36Z</time>
      </trkpt>
      <trkpt lat="44.58152" lon="6.24809">
        <ele>1455.092773</ele>
        <time>2011-05-19T11:31:49Z</time>
      </trkpt>
      <trkpt lat="44.58153" lon="6.2478">
        <ele>1451.247314</ele>
        <time>2011-05-19T11:32:00Z</time>
      </trkpt>
      <trkpt lat="44.58153" lon="6.24777">
        <ele>1451.247314</ele>
        <time>2011-05-19T11:32:01Z</time>
      </trkpt>
      <trkpt lat="44.58147" lon="6.2474">
        <ele>1446.921387</ele>
        <time>2011-05-19T11:32:10Z</time>
      </trkpt>
      <trkpt lat="44.58145" lon="6.24735">
        <ele>1446.921387</ele>
        <time>2011-05-19T11:32:11Z</time>
      </trkpt>
      <trkpt lat="44.58132" lon="6.24709">
        <ele>1444.518066</ele>
        <time>2011-05-19T11:32:18Z</time>
      </trkpt>
      <trkpt lat="44.5813" lon="6.24697">
        <ele>1443.076172</ele>
        <time>2011-05-19T11:32:22Z</time>
      </trkpt>
      <trkpt lat="44.58126" lon="6.2467">
        <ele>1439.230957</ele>
        <time>2011-05-19T11:32:29Z</time>
      </trkpt>
      <trkpt lat="44.58125" lon="6.24666">
        <ele>1439.230957</ele>
        <time>2011-05-19T11:32:30Z</time>
      </trkpt>
      <trkpt lat="44.58108" lon="6.24619">
        <ele>1436.827637</ele>
        <time>2011-05-19T11:32:39Z</time>
      </trkpt>
      <trkpt lat="44.5809" lon="6.246">
        <ele>1433.943604</ele>
        <time>2011-05-19T11:32:45Z</time>
      </trkpt>
      <trkpt lat="44.58087" lon="6.24596">
        <ele>1433.943604</ele>
        <time>2011-05-19T11:32:46Z</time>
      </trkpt>
      <trkpt lat="44.58076" lon="6.2459">
        <ele>1432.982178</ele>
        <time>2011-05-19T11:32:50Z</time>
      </trkpt>
      <trkpt lat="44.5807" lon="6.24595">
        <ele>1431.540283</ele>
        <time>2011-05-19T11:32:56Z</time>
      </trkpt>
      <trkpt lat="44.5807" lon="6.24601">
        <ele>1431.059814</ele>
        <time>2011-05-19T11:32:58Z</time>
      </trkpt>
      <trkpt lat="44.58073" lon="6.24617">
        <ele>1429.617676</ele>
        <time>2011-05-19T11:33:03Z</time>
      </trkpt>
      <trkpt lat="44.58079" lon="6.24639">
        <ele>1426.253174</ele>
        <time>2011-05-19T11:33:11Z</time>
      </trkpt>
      <trkpt lat="44.5808" lon="6.24641">
        <ele>1426.253174</ele>
        <time>2011-05-19T11:33:12Z</time>
      </trkpt>
      <trkpt lat="44.58082" lon="6.24652">
        <ele>1424.330566</ele>
        <time>2011-05-19T11:33:17Z</time>
      </trkpt>
      <trkpt lat="44.58082" lon="6.24652">
        <ele>1421.446533</ele>
        <time>2011-05-19T11:33:22Z</time>
      </trkpt>
      <trkpt lat="44.58092" lon="6.24689">
        <ele>1417.601074</ele>
        <time>2011-05-19T11:33:30Z</time>
      </trkpt>
      <trkpt lat="44.58093" lon="6.24699">
        <ele>1416.639893</ele>
        <time>2011-05-19T11:33:35Z</time>
      </trkpt>
      <trkpt lat="44.58093" lon="6.24734">
        <ele>1414.717285</ele>
        <time>2011-05-19T11:33:38Z</time>
      </trkpt>
      <trkpt lat="44.58086" lon="6.24802">
        <ele>1411.352783</ele>
        <time>2011-05-19T11:33:47Z</time>
      </trkpt>
      <trkpt lat="44.58075" lon="6.24837">
        <ele>1408.46875</ele>
        <time>2011-05-19T11:33:55Z</time>
      </trkpt>
      <trkpt lat="44.58074" lon="6.24845">
        <ele>1407.507568</ele>
        <time>2011-05-19T11:33:57Z</time>
      </trkpt>
      <trkpt lat="44.58072" lon="6.24868">
        <ele>1405.104248</ele>
        <time>2011-05-19T11:34:01Z</time>
      </trkpt>
      <trkpt lat="44.58062" lon="6.24896">
        <ele>1402.219971</ele>
        <time>2011-05-19T11:34:07Z</time>
      </trkpt>
      <trkpt lat="44.58054" lon="6.24925">
        <ele>1399.816895</ele>
        <time>2011-05-19T11:34:13Z</time>
      </trkpt>
      <trkpt lat="44.58052" lon="6.24933">
        <ele>1398.374756</ele>
        <time>2011-05-19T11:34:15Z</time>
      </trkpt>
      <trkpt lat="44.58042" lon="6.24952">
        <ele>1395.490967</ele>
        <time>2011-05-19T11:34:21Z</time>
      </trkpt>
      <trkpt lat="44.5804" lon="6.24956">
        <ele>1395.490967</ele>
        <time>2011-05-19T11:34:22Z</time>
      </trkpt>
      <trkpt lat="44.58025" lon="6.24978">
        <ele>1391.645752</ele>
        <time>2011-05-19T11:34:29Z</time>
      </trkpt>
      <trkpt lat="44.57998" lon="6.24997">
        <ele>1388.761963</ele>
        <time>2011-05-19T11:34:38Z</time>
      </trkpt>
      <trkpt lat="44.57977" lon="6.25015">
        <ele>1384.916504</ele>
        <time>2011-05-19T11:34:48Z</time>
      </trkpt>
      <trkpt lat="44.57964" lon="6.25041">
        <ele>1381.551758</ele>
        <time>2011-05-19T11:34:57Z</time>
      </trkpt>
      <trkpt lat="44.5795" lon="6.25069">
        <ele>1378.187256</ele>
        <time>2011-05-19T11:35:05Z</time>
      </trkpt>
      <trkpt lat="44.57948" lon="6.25072">
        <ele>1378.187256</ele>
        <time>2011-05-19T11:35:06Z</time>
      </trkpt>
      <trkpt lat="44.57944" lon="6.25089">
        <ele>1376.264648</ele>
        <time>2011-05-19T11:35:11Z</time>
      </trkpt>
      <trkpt lat="44.57943" lon="6.25105">
        <ele>1374.822754</ele>
        <time>2011-05-19T11:35:15Z</time>
      </trkpt>
      <trkpt lat="44.57932" lon="6.25123">
        <ele>1373.380859</ele>
        <time>2011-05-19T11:35:21Z</time>
      </trkpt>
      <trkpt lat="44.57927" lon="6.25123">
        <ele>1372.900146</ele>
        <time>2011-05-19T11:35:36Z</time>
      </trkpt>
      <trkpt lat="44.57927" lon="6.25123">
        <ele>1373.380859</ele>
        <time>2011-05-19T11:36:03Z</time>
      </trkpt>
      <trkpt lat="44.57932" lon="6.25096">
        <ele>1370.496582</ele>
        <time>2011-05-19T11:36:12Z</time>
      </trkpt>
      <trkpt lat="44.57934" lon="6.2509">
        <ele>1369.5354</ele>
        <time>2011-05-19T11:36:14Z</time>
      </trkpt>
      <trkpt lat="44.57935" lon="6.25058">
        <ele>1366.170654</ele>
        <time>2011-05-19T11:36:23Z</time>
      </trkpt>
      <trkpt lat="44.57931" lon="6.25031">
        <ele>1362.325439</ele>
        <time>2011-05-19T11:36:31Z</time>
      </trkpt>
      <trkpt lat="44.57931" lon="6.25024">
        <ele>1361.844971</ele>
        <time>2011-05-19T11:36:33Z</time>
      </trkpt>
      <trkpt lat="44.57932" lon="6.25015">
        <ele>1360.402832</ele>
        <time>2011-05-19T11:36:35Z</time>
      </trkpt>
      <trkpt lat="44.57937" lon="6.24989">
        <ele>1356.557617</ele>
        <time>2011-05-19T11:36:42Z</time>
      </trkpt>
      <trkpt lat="44.57948" lon="6.24955">
        <ele>1353.192871</ele>
        <time>2011-05-19T11:36:50Z</time>
      </trkpt>
      <trkpt lat="44.57953" lon="6.24944">
        <ele>1351.750977</ele>
        <time>2011-05-19T11:36:54Z</time>
      </trkpt>
      <trkpt lat="44.57958" lon="6.24929">
        <ele>1350.789551</ele>
        <time>2011-05-19T11:36:58Z</time>
      </trkpt>
      <trkpt lat="44.57963" lon="6.2489">
        <ele>1346.944336</ele>
        <time>2011-05-19T11:37:07Z</time>
      </trkpt>
      <trkpt lat="44.57957" lon="6.24875">
        <ele>1345.502441</ele>
        <time>2011-05-19T11:37:10Z</time>
      </trkpt>
      <trkpt lat="44.57946" lon="6.24836">
        <ele>1341.657227</ele>
        <time>2011-05-19T11:37:18Z</time>
      </trkpt>
      <trkpt lat="44.57947" lon="6.24814">
        <ele>1339.734375</ele>
        <time>2011-05-19T11:37:23Z</time>
      </trkpt>
      <trkpt lat="44.57942" lon="6.24791">
        <ele>1336.369873</ele>
        <time>2011-05-19T11:37:30Z</time>
      </trkpt>
      <trkpt lat="44.57929" lon="6.24764">
        <ele>1332.524658</ele>
        <time>2011-05-19T11:37:37Z</time>
      </trkpt>
      <trkpt lat="44.57905" lon="6.24742">
        <ele>1328.679443</ele>
        <time>2011-05-19T11:37:47Z</time>
      </trkpt>
      <trkpt lat="44.57881" lon="6.2473">
        <ele>1325.79541</ele>
        <time>2011-05-19T11:37:56Z</time>
      </trkpt>
      <trkpt lat="44.57859" lon="6.24712">
        <ele>1322.430664</ele>
        <time>2011-05-19T11:38:04Z</time>
      </trkpt>
      <trkpt lat="44.57846" lon="6.24686">
        <ele>1318.585449</ele>
        <time>2011-05-19T11:38:13Z</time>
      </trkpt>
      <trkpt lat="44.57844" lon="6.24648">
        <ele>1315.220947</ele>
        <time>2011-05-19T11:38:21Z</time>
      </trkpt>
      <trkpt lat="44.5786" lon="6.24618">
        <ele>1311.856445</ele>
        <time>2011-05-19T11:38:30Z</time>
      </trkpt>
      <trkpt lat="44.57856" lon="6.24604">
        <ele>1310.89502</ele>
        <time>2011-05-19T11:38:35Z</time>
      </trkpt>
      <trkpt lat="44.57838" lon="6.24572">
        <ele>1306.568848</ele>
        <time>2011-05-19T11:38:44Z</time>
      </trkpt>
      <trkpt lat="44.5783" lon="6.24545">
        <ele>1303.204346</ele>
        <time>2011-05-19T11:38:51Z</time>
      </trkpt>
      <trkpt lat="44.57829" lon="6.24542">
        <ele>1303.204346</ele>
        <time>2011-05-19T11:38:52Z</time>
      </trkpt>
      <trkpt lat="44.57832" lon="6.24516">
        <ele>1299.839844</ele>
        <time>2011-05-19T11:38:59Z</time>
      </trkpt>
      <trkpt lat="44.5784" lon="6.24473">
        <ele>1295.994629</ele>
        <time>2011-05-19T11:39:10Z</time>
      </trkpt>
      <trkpt lat="44.57841" lon="6.2447">
        <ele>1295.994629</ele>
        <time>2011-05-19T11:39:11Z</time>
      </trkpt>
      <trkpt lat="44.57852" lon="6.24439">
        <ele>1292.630127</ele>
        <time>2011-05-19T11:39:20Z</time>
      </trkpt>
      <trkpt lat="44.57866" lon="6.2441">
        <ele>1289.74585</ele>
        <time>2011-05-19T11:39:29Z</time>
      </trkpt>
      <trkpt lat="44.57877" lon="6.24372">
        <ele>1286.381348</ele>
        <time>2011-05-19T11:39:39Z</time>
      </trkpt>
      <trkpt lat="44.57874" lon="6.24357">
        <ele>1285.900635</ele>
        <time>2011-05-19T11:39:52Z</time>
      </trkpt>
      <trkpt lat="44.57873" lon="6.24357">
        <ele>1285.419922</ele>
        <time>2011-05-19T11:40:53Z</time>
      </trkpt>
      <trkpt lat="44.57868" lon="6.24363">
        <ele>1283.016602</ele>
        <time>2011-05-19T11:41:27Z</time>
      </trkpt>
      <trkpt lat="44.57855" lon="6.24381">
        <ele>1281.094238</ele>
        <time>2011-05-19T11:41:34Z</time>
      </trkpt>
      <trkpt lat="44.57841" lon="6.24396">
        <ele>1278.210205</ele>
        <time>2011-05-19T11:41:39Z</time>
      </trkpt>
      <trkpt lat="44.57824" lon="6.24404">
        <ele>1276.287598</ele>
        <time>2011-05-19T11:41:45Z</time>
      </trkpt>
      <trkpt lat="44.57818" lon="6.24407">
        <ele>1275.325928</ele>
        <time>2011-05-19T11:41:47Z</time>
      </trkpt>
      <trkpt lat="44.57814" lon="6.24409">
        <ele>1276.287598</ele>
        <time>2011-05-19T11:41:49Z</time>
      </trkpt>
      <trkpt lat="44.57811" lon="6.24412">
        <ele>1274.364746</ele>
        <time>2011-05-19T11:41:51Z</time>
      </trkpt>
      <trkpt lat="44.5781" lon="6.24413">
        <ele>1274.364746</ele>
        <time>2011-05-19T11:41:52Z</time>
      </trkpt>
      <trkpt lat="44.57806" lon="6.24422">
        <ele>1272.922852</ele>
        <time>2011-05-19T11:41:55Z</time>
      </trkpt>
      <trkpt lat="44.57801" lon="6.24426">
        <ele>1271.961426</ele>
        <time>2011-05-19T11:41:57Z</time>
      </trkpt>
      <trkpt lat="44.57779" lon="6.24443">
        <ele>1269.55835</ele>
        <time>2011-05-19T11:42:05Z</time>
      </trkpt>
      <trkpt lat="44.57776" lon="6.2448">
        <ele>1264.270996</ele>
        <time>2011-05-19T11:42:15Z</time>
      </trkpt>
      <trkpt lat="44.57776" lon="6.24484">
        <ele>1264.270996</ele>
        <time>2011-05-19T11:42:16Z</time>
      </trkpt>
      <trkpt lat="44.57775" lon="6.24517">
        <ele>1260.906494</ele>
        <time>2011-05-19T11:42:25Z</time>
      </trkpt>
      <trkpt lat="44.57769" lon="6.24537">
        <ele>1258.50293</ele>
        <time>2011-05-19T11:42:33Z</time>
      </trkpt>
      <trkpt lat="44.57764" lon="6.24551">
        <ele>1257.061035</ele>
        <time>2011-05-19T11:42:37Z</time>
      </trkpt>
      <trkpt lat="44.57742" lon="6.24603">
        <ele>1253.696533</ele>
        <time>2011-05-19T11:42:46Z</time>
      </trkpt>
      <trkpt lat="44.57736" lon="6.2461">
        <ele>1252.254395</ele>
        <time>2011-05-19T11:42:48Z</time>
      </trkpt>
      <trkpt lat="44.57709" lon="6.24646">
        <ele>1248.40918</ele>
        <time>2011-05-19T11:42:57Z</time>
      </trkpt>
      <trkpt lat="44.5769" lon="6.24673">
        <ele>1245.525391</ele>
        <time>2011-05-19T11:43:05Z</time>
      </trkpt>
      <trkpt lat="44.57675" lon="6.24706">
        <ele>1242.641357</ele>
        <time>2011-05-19T11:43:12Z</time>
      </trkpt>
      <trkpt lat="44.57656" lon="6.24739">
        <ele>1239.276611</ele>
        <time>2011-05-19T11:43:20Z</time>
      </trkpt>
      <trkpt lat="44.57643" lon="6.24758">
        <ele>1237.354004</ele>
        <time>2011-05-19T11:43:26Z</time>
      </trkpt>
      <trkpt lat="44.57624" lon="6.24804">
        <ele>1233.028076</ele>
        <time>2011-05-19T11:43:37Z</time>
      </trkpt>
      <trkpt lat="44.57613" lon="6.24828">
        <ele>1231.105713</ele>
        <time>2011-05-19T11:43:45Z</time>
      </trkpt>
      <trkpt lat="44.57598" lon="6.24823">
        <ele>1227.740723</ele>
        <time>2011-05-19T11:43:53Z</time>
      </trkpt>
      <trkpt lat="44.57591" lon="6.24802">
        <ele>1223.895508</ele>
        <time>2011-05-19T11:44:00Z</time>
      </trkpt>
      <trkpt lat="44.5759" lon="6.24798">
        <ele>1223.895508</ele>
        <time>2011-05-19T11:44:01Z</time>
      </trkpt>
      <trkpt lat="44.57588" lon="6.24786">
        <ele>1221.9729</ele>
        <time>2011-05-19T11:44:04Z</time>
      </trkpt>
      <trkpt lat="44.57581" lon="6.2476">
        <ele>1218.608398</ele>
        <time>2011-05-19T11:44:11Z</time>
      </trkpt>
      <trkpt lat="44.57577" lon="6.24729">
        <ele>1214.763184</ele>
        <time>2011-05-19T11:44:19Z</time>
      </trkpt>
      <trkpt lat="44.57572" lon="6.24703">
        <ele>1212.840576</ele>
        <time>2011-05-19T11:44:25Z</time>
      </trkpt>
      <trkpt lat="44.57571" lon="6.24691">
        <ele>1209.956299</ele>
        <time>2011-05-19T11:44:29Z</time>
      </trkpt>
      <trkpt lat="44.5757" lon="6.24672">
        <ele>1208.033936</ele>
        <time>2011-05-19T11:44:35Z</time>
      </trkpt>
      <trkpt lat="44.57586" lon="6.2462">
        <ele>1204.669189</ele>
        <time>2011-05-19T11:44:50Z</time>
      </trkpt>
      <trkpt lat="44.57614" lon="6.24587">
        <ele>1200.343506</ele>
        <time>2011-05-19T11:45:03Z</time>
      </trkpt>
      <trkpt lat="44.57617" lon="6.24582">
        <ele>1198.901367</ele>
        <time>2011-05-19T11:45:05Z</time>
      </trkpt>
      <trkpt lat="44.57626" lon="6.24571">
        <ele>1196.97876</ele>
        <time>2011-05-19T11:45:09Z</time>
      </trkpt>
      <trkpt lat="44.57627" lon="6.24564">
        <ele>1196.498291</ele>
        <time>2011-05-19T11:45:10Z</time>
      </trkpt>
      <trkpt lat="44.5763" lon="6.24553">
        <ele>1195.055908</ele>
        <time>2011-05-19T11:45:13Z</time>
      </trkpt>
      <trkpt lat="44.57622" lon="6.24522">
        <ele>1191.210693</ele>
        <time>2011-05-19T11:45:22Z</time>
      </trkpt>
      <trkpt lat="44.57616" lon="6.24507">
        <ele>1189.768799</ele>
        <time>2011-05-19T11:45:26Z</time>
      </trkpt>
      <trkpt lat="44.57609" lon="6.24493">
        <ele>1186.404297</ele>
        <time>2011-05-19T11:45:31Z</time>
      </trkpt>
      <trkpt lat="44.57607" lon="6.2449">
        <ele>1186.404297</ele>
        <time>2011-05-19T11:45:32Z</time>
      </trkpt>
      <trkpt lat="44.57594" lon="6.2447">
        <ele>1183.039551</ele>
        <time>2011-05-19T11:45:39Z</time>
      </trkpt>
      <trkpt lat="44.57587" lon="6.24461">
        <ele>1181.597656</ele>
        <time>2011-05-19T11:45:45Z</time>
      </trkpt>
      <trkpt lat="44.57589" lon="6.24434">
        <ele>1177.752197</ele>
        <time>2011-05-19T11:45:56Z</time>
      </trkpt>
      <trkpt lat="44.57593" lon="6.24406">
        <ele>1174.387695</ele>
        <time>2011-05-19T11:46:05Z</time>
      </trkpt>
      <trkpt lat="44.57595" lon="6.24401">
        <ele>1174.387695</ele>
        <time>2011-05-19T11:46:06Z</time>
      </trkpt>
      <trkpt lat="44.57597" lon="6.24393">
        <ele>1172.945801</ele>
        <time>2011-05-19T11:46:08Z</time>
      </trkpt>
      <trkpt lat="44.57601" lon="6.24368">
        <ele>1170.54248</ele>
        <time>2011-05-19T11:46:14Z</time>
      </trkpt>
      <trkpt lat="44.57591" lon="6.24328">
        <ele>1167.177979</ele>
        <time>2011-05-19T11:46:21Z</time>
      </trkpt>
      <trkpt lat="44.57591" lon="6.24322">
        <ele>1167.177979</ele>
        <time>2011-05-19T11:46:22Z</time>
      </trkpt>
      <trkpt lat="44.57589" lon="6.24289">
        <ele>1165.255371</ele>
        <time>2011-05-19T11:46:26Z</time>
      </trkpt>
      <trkpt lat="44.5759" lon="6.24216">
        <ele>1163.812988</ele>
        <time>2011-05-19T11:46:37Z</time>
      </trkpt>
      <trkpt lat="44.57598" lon="6.2414">
        <ele>1161.890625</ele>
        <time>2011-05-19T11:46:44Z</time>
      </trkpt>
      <trkpt lat="44.57617" lon="6.24099">
        <ele>1160.448486</ele>
        <time>2011-05-19T11:46:50Z</time>
      </trkpt>
      <trkpt lat="44.5762" lon="6.24082">
        <ele>1158.04541</ele>
        <time>2011-05-19T11:46:53Z</time>
      </trkpt>
      <trkpt lat="44.57621" lon="6.24077">
        <ele>1156.603271</ele>
        <time>2011-05-19T11:46:54Z</time>
      </trkpt>
      <trkpt lat="44.57619" lon="6.24056">
        <ele>1155.161377</ele>
        <time>2011-05-19T11:46:57Z</time>
      </trkpt>
      <trkpt lat="44.57618" lon="6.24052">
        <ele>1154.680664</ele>
        <time>2011-05-19T11:46:58Z</time>
      </trkpt>
      <trkpt lat="44.57626" lon="6.23996">
        <ele>1151.796875</ele>
        <time>2011-05-19T11:47:04Z</time>
      </trkpt>
      <trkpt lat="44.57634" lon="6.23982">
        <ele>1150.35498</ele>
        <time>2011-05-19T11:47:06Z</time>
      </trkpt>
      <trkpt lat="44.57648" lon="6.23927">
        <ele>1146.509521</ele>
        <time>2011-05-19T11:47:15Z</time>
      </trkpt>
      <trkpt lat="44.5765" lon="6.23921">
        <ele>1146.509521</ele>
        <time>2011-05-19T11:47:16Z</time>
      </trkpt>
      <trkpt lat="44.57652" lon="6.23913">
        <ele>1147.470703</ele>
        <time>2011-05-19T11:47:24Z</time>
      </trkpt>
      <trkpt lat="44.57652" lon="6.23913">
        <ele>1145.548096</ele>
        <time>2011-05-19T11:47:40Z</time>
      </trkpt>
      <trkpt lat="44.57652" lon="6.23914">
        <ele>1142.183594</ele>
        <time>2011-05-19T11:47:43Z</time>
      </trkpt>
      <trkpt lat="44.57651" lon="6.23916">
        <ele>1142.183594</ele>
        <time>2011-05-19T11:47:44Z</time>
      </trkpt>
      <trkpt lat="44.57629" lon="6.23924">
        <ele>1141.702881</ele>
        <time>2011-05-19T11:47:48Z</time>
      </trkpt>
      <trkpt lat="44.57596" lon="6.23944">
        <ele>1139.780273</ele>
        <time>2011-05-19T11:47:55Z</time>
      </trkpt>
      <trkpt lat="44.57583" lon="6.23957">
        <ele>1138.338379</ele>
        <time>2011-05-19T11:47:57Z</time>
      </trkpt>
      <trkpt lat="44.57574" lon="6.23967">
        <ele>1136.89624</ele>
        <time>2011-05-19T11:47:59Z</time>
      </trkpt>
      <trkpt lat="44.57562" lon="6.2398">
        <ele>1134.493164</ele>
        <time>2011-05-19T11:48:02Z</time>
      </trkpt>
      <trkpt lat="44.57538" lon="6.24007">
        <ele>1132.089844</ele>
        <time>2011-05-19T11:48:07Z</time>
      </trkpt>
      <trkpt lat="44.57535" lon="6.24008">
        <ele>1132.089844</ele>
        <time>2011-05-19T11:48:08Z</time>
      </trkpt>
      <trkpt lat="44.57527" lon="6.23983">
        <ele>1130.166992</ele>
        <time>2011-05-19T11:48:14Z</time>
      </trkpt>
      <trkpt lat="44.5753" lon="6.23967">
        <ele>1129.205566</ele>
        <time>2011-05-19T11:48:16Z</time>
      </trkpt>
      <trkpt lat="44.57533" lon="6.23951">
        <ele>1127.283203</ele>
        <time>2011-05-19T11:48:18Z</time>
      </trkpt>
      <trkpt lat="44.57534" lon="6.23943">
        <ele>1126.321777</ele>
        <time>2011-05-19T11:48:19Z</time>
      </trkpt>
      <trkpt lat="44.57538" lon="6.23904">
        <ele>1123.437988</ele>
        <time>2011-05-19T11:48:23Z</time>
      </trkpt>
      <trkpt lat="44.57543" lon="6.23874">
        <ele>1121.99585</ele>
        <time>2011-05-19T11:48:28Z</time>
      </trkpt>
      <trkpt lat="44.57542" lon="6.23846">
        <ele>1119.592773</ele>
        <time>2011-05-19T11:48:32Z</time>
      </trkpt>
      <trkpt lat="44.57539" lon="6.23825">
        <ele>1117.189453</ele>
        <time>2011-05-19T11:48:34Z</time>
      </trkpt>
      <trkpt lat="44.57535" lon="6.23802">
        <ele>1113.824463</ele>
        <time>2011-05-19T11:48:36Z</time>
      </trkpt>
      <trkpt lat="44.57532" lon="6.23788">
        <ele>1113.824463</ele>
        <time>2011-05-19T11:48:37Z</time>
      </trkpt>
      <trkpt lat="44.57525" lon="6.23761">
        <ele>1111.421387</ele>
        <time>2011-05-19T11:48:39Z</time>
      </trkpt>
      <trkpt lat="44.57518" lon="6.23695">
        <ele>1108.537354</ele>
        <time>2011-05-19T11:48:44Z</time>
      </trkpt>
      <trkpt lat="44.57517" lon="6.23669">
        <ele>1107.095459</ele>
        <time>2011-05-19T11:48:46Z</time>
      </trkpt>
      <trkpt lat="44.57517" lon="6.23644">
        <ele>1105.172852</ele>
        <time>2011-05-19T11:48:48Z</time>
      </trkpt>
      <trkpt lat="44.57516" lon="6.23611">
        <ele>1107.095459</ele>
        <time>2011-05-19T11:48:51Z</time>
      </trkpt>
      <trkpt lat="44.57515" lon="6.23603">
        <ele>1108.056885</ele>
        <time>2011-05-19T11:48:52Z</time>
      </trkpt>
      <trkpt lat="44.57514" lon="6.23582">
        <ele>1106.614746</ele>
        <time>2011-05-19T11:48:55Z</time>
      </trkpt>
      <trkpt lat="44.57509" lon="6.23537">
        <ele>1104.692139</ele>
        <time>2011-05-19T11:49:03Z</time>
      </trkpt>
      <trkpt lat="44.57507" lon="6.23523">
        <ele>1103.250244</ele>
        <time>2011-05-19T11:49:05Z</time>
      </trkpt>
      <trkpt lat="44.57505" lon="6.23504">
        <ele>1101.327637</ele>
        <time>2011-05-19T11:49:07Z</time>
      </trkpt>
      <trkpt lat="44.57504" lon="6.23483">
        <ele>1098.924072</ele>
        <time>2011-05-19T11:49:09Z</time>
      </trkpt>
      <trkpt lat="44.57504" lon="6.23453">
        <ele>1096.040283</ele>
        <time>2011-05-19T11:49:12Z</time>
      </trkpt>
      <trkpt lat="44.57506" lon="6.23434">
        <ele>1094.598145</ele>
        <time>2011-05-19T11:49:14Z</time>
      </trkpt>
      <trkpt lat="44.5751" lon="6.23416">
        <ele>1092.675781</ele>
        <time>2011-05-19T11:49:16Z</time>
      </trkpt>
      <trkpt lat="44.57513" lon="6.23403">
        <ele>1092.195068</ele>
        <time>2011-05-19T11:49:18Z</time>
      </trkpt>
      <trkpt lat="44.5751" lon="6.23388">
        <ele>1090.75293</ele>
        <time>2011-05-19T11:49:21Z</time>
      </trkpt>
      <trkpt lat="44.57512" lon="6.23385">
        <ele>1089.791748</ele>
        <time>2011-05-19T11:49:23Z</time>
      </trkpt>
      <trkpt lat="44.57505" lon="6.23385">
        <ele>1088.349854</ele>
        <time>2011-05-19T11:49:25Z</time>
      </trkpt>
      <trkpt lat="44.57493" lon="6.23386">
        <ele>1085.946533</ele>
        <time>2011-05-19T11:49:27Z</time>
      </trkpt>
      <trkpt lat="44.57478" lon="6.23402">
        <ele>1084.504639</ele>
        <time>2011-05-19T11:49:30Z</time>
      </trkpt>
      <trkpt lat="44.57462" lon="6.23419">
        <ele>1082.581787</ele>
        <time>2011-05-19T11:49:35Z</time>
      </trkpt>
      <trkpt lat="44.57454" lon="6.23428">
        <ele>1081.620361</ele>
        <time>2011-05-19T11:49:36Z</time>
      </trkpt>
      <trkpt lat="44.57441" lon="6.23402">
        <ele>1078.255859</ele>
        <time>2011-05-19T11:49:41Z</time>
      </trkpt>
      <trkpt lat="44.57447" lon="6.23381">
        <ele>1076.813965</ele>
        <time>2011-05-19T11:49:44Z</time>
      </trkpt>
      <trkpt lat="44.57443" lon="6.23324">
        <ele>1073.929932</ele>
        <time>2011-05-19T11:49:51Z</time>
      </trkpt>
      <trkpt lat="44.57451" lon="6.2329">
        <ele>1071.046143</ele>
        <time>2011-05-19T11:49:56Z</time>
      </trkpt>
      <trkpt lat="44.57467" lon="6.23252">
        <ele>1070.084717</ele>
        <time>2011-05-19T11:50:05Z</time>
      </trkpt>
      <trkpt lat="44.57467" lon="6.23252">
        <ele>1069.604248</ele>
        <time>2011-05-19T11:50:25Z</time>
      </trkpt>
      <trkpt lat="44.57454" lon="6.23241">
        <ele>1067.200684</ele>
        <time>2011-05-19T11:50:31Z</time>
      </trkpt>
      <trkpt lat="44.57443" lon="6.23246">
        <ele>1064.797363</ele>
        <time>2011-05-19T11:50:33Z</time>
      </trkpt>
      <trkpt lat="44.57413" lon="6.23258">
        <ele>1062.394043</ele>
        <time>2011-05-19T11:50:38Z</time>
      </trkpt>
      <trkpt lat="44.57397" lon="6.23268">
        <ele>1060.952148</ele>
        <time>2011-05-19T11:50:41Z</time>
      </trkpt>
      <trkpt lat="44.57387" lon="6.23274">
        <ele>1060.952148</ele>
        <time>2011-05-19T11:50:43Z</time>
      </trkpt>
      <trkpt lat="44.57374" lon="6.23285">
        <ele>1059.510254</ele>
        <time>2011-05-19T11:50:46Z</time>
      </trkpt>
      <trkpt lat="44.57365" lon="6.23291">
        <ele>1059.029541</ele>
        <time>2011-05-19T11:50:49Z</time>
      </trkpt>
      <trkpt lat="44.57358" lon="6.23272">
        <ele>1056.626221</ele>
        <time>2011-05-19T11:50:53Z</time>
      </trkpt>
      <trkpt lat="44.57361" lon="6.23261">
        <ele>1056.145508</ele>
        <time>2011-05-19T11:50:55Z</time>
      </trkpt>
      <trkpt lat="44.57364" lon="6.2324">
        <ele>1054.223145</ele>
        <time>2011-05-19T11:51:05Z</time>
      </trkpt>
      <trkpt lat="44.57364" lon="6.23223">
        <ele>1051.81958</ele>
        <time>2011-05-19T11:52:09Z</time>
      </trkpt>
      <trkpt lat="44.57364" lon="6.23193">
        <ele>1049.896973</ele>
        <time>2011-05-19T11:52:13Z</time>
      </trkpt>
      <trkpt lat="44.5737" lon="6.23159">
        <ele>1048.454834</ele>
        <time>2011-05-19T11:52:19Z</time>
      </trkpt>
      <trkpt lat="44.57358" lon="6.23147">
        <ele>1046.532471</ele>
        <time>2011-05-19T11:52:24Z</time>
      </trkpt>
      <trkpt lat="44.57354" lon="6.2315">
        <ele>1045.090332</ele>
        <time>2011-05-19T11:52:25Z</time>
      </trkpt>
      <trkpt lat="44.57332" lon="6.23161">
        <ele>1043.167725</ele>
        <time>2011-05-19T11:52:29Z</time>
      </trkpt>
      <trkpt lat="44.57322" lon="6.23166">
        <ele>1041.72583</ele>
        <time>2011-05-19T11:52:31Z</time>
      </trkpt>
      <trkpt lat="44.57314" lon="6.23175">
        <ele>1041.72583</ele>
        <time>2011-05-19T11:52:33Z</time>
      </trkpt>
      <trkpt lat="44.57294" lon="6.23181">
        <ele>1040.283936</ele>
        <time>2011-05-19T11:52:37Z</time>
      </trkpt>
      <trkpt lat="44.57273" lon="6.23186">
        <ele>1038.842041</ele>
        <time>2011-05-19T11:52:42Z</time>
      </trkpt>
      <trkpt lat="44.57263" lon="6.23178">
        <ele>1035.957764</ele>
        <time>2011-05-19T11:52:45Z</time>
      </trkpt>
      <trkpt lat="44.57262" lon="6.23174">
        <ele>1036.438721</ele>
        <time>2011-05-19T11:52:46Z</time>
      </trkpt>
      <trkpt lat="44.57267" lon="6.23141">
        <ele>1034.035156</ele>
        <time>2011-05-19T11:52:51Z</time>
      </trkpt>
      <trkpt lat="44.57269" lon="6.23119">
        <ele>1031.151367</ele>
        <time>2011-05-19T11:52:55Z</time>
      </trkpt>
      <trkpt lat="44.5726" lon="6.231">
        <ele>1030.189941</ele>
        <time>2011-05-19T11:53:00Z</time>
      </trkpt>
      <trkpt lat="44.57254" lon="6.23091">
        <ele>1028.748047</ele>
        <time>2011-05-19T11:53:03Z</time>
      </trkpt>
      <trkpt lat="44.57248" lon="6.23068">
        <ele>1027.786621</ele>
        <time>2011-05-19T11:53:07Z</time>
      </trkpt>
      <trkpt lat="44.57252" lon="6.23064">
        <ele>1027.306152</ele>
        <time>2011-05-19T11:53:10Z</time>
      </trkpt>
      <trkpt lat="44.57265" lon="6.23041">
        <ele>1025.383301</ele>
        <time>2011-05-19T11:53:14Z</time>
      </trkpt>
      <trkpt lat="44.57269" lon="6.23033">
        <ele>1024.902832</ele>
        <time>2011-05-19T11:53:15Z</time>
      </trkpt>
      <trkpt lat="44.57295" lon="6.22971">
        <ele>1025.383301</ele>
        <time>2011-05-19T11:53:25Z</time>
      </trkpt>
      <trkpt lat="44.57304" lon="6.22935">
        <ele>1022.499512</ele>
        <time>2011-05-19T11:53:30Z</time>
      </trkpt>
      <trkpt lat="44.57306" lon="6.22927">
        <ele>1022.499512</ele>
        <time>2011-05-19T11:53:31Z</time>
      </trkpt>
      <trkpt lat="44.57324" lon="6.22867">
        <ele>1019.615479</ele>
        <time>2011-05-19T11:53:38Z</time>
      </trkpt>
      <trkpt lat="44.57332" lon="6.22849">
        <ele>1017.692627</ele>
        <time>2011-05-19T11:53:40Z</time>
      </trkpt>
      <trkpt lat="44.57342" lon="6.22826">
        <ele>1015.770264</ele>
        <time>2011-05-19T11:53:43Z</time>
      </trkpt>
      <trkpt lat="44.57346" lon="6.22802">
        <ele>1014.328125</ele>
        <time>2011-05-19T11:53:46Z</time>
      </trkpt>
      <trkpt lat="44.57332" lon="6.22757">
        <ele>1012.405518</ele>
        <time>2011-05-19T11:53:51Z</time>
      </trkpt>
      <trkpt lat="44.57318" lon="6.22734">
        <ele>1010.002197</ele>
        <time>2011-05-19T11:53:54Z</time>
      </trkpt>
      <trkpt lat="44.57312" lon="6.22719">
        <ele>1009.041016</ele>
        <time>2011-05-19T11:53:56Z</time>
      </trkpt>
      <trkpt lat="44.57311" lon="6.22677">
        <ele>1005.195801</ele>
        <time>2011-05-19T11:54:00Z</time>
      </trkpt>
      <trkpt lat="44.57324" lon="6.22616">
        <ele>1002.311523</ele>
        <time>2011-05-19T11:54:06Z</time>
      </trkpt>
      <trkpt lat="44.57325" lon="6.22596">
        <ele>1001.350342</ele>
        <time>2011-05-19T11:54:08Z</time>
      </trkpt>
      <trkpt lat="44.5732" lon="6.2254">
        <ele>998.466309</ele>
        <time>2011-05-19T11:54:13Z</time>
      </trkpt>
      <trkpt lat="44.57319" lon="6.22521">
        <ele>997.505127</ele>
        <time>2011-05-19T11:54:15Z</time>
      </trkpt>
      <trkpt lat="44.57323" lon="6.22482">
        <ele>995.101807</ele>
        <time>2011-05-19T11:54:19Z</time>
      </trkpt>
      <trkpt lat="44.57321" lon="6.22449">
        <ele>992.218018</ele>
        <time>2011-05-19T11:54:23Z</time>
      </trkpt>
      <trkpt lat="44.57335" lon="6.22416">
        <ele>990.29541</ele>
        <time>2011-05-19T11:54:28Z</time>
      </trkpt>
      <trkpt lat="44.57355" lon="6.22386">
        <ele>988.853516</ele>
        <time>2011-05-19T11:54:35Z</time>
      </trkpt>
      <trkpt lat="44.57357" lon="6.2237">
        <ele>986.93042</ele>
        <time>2011-05-19T11:54:40Z</time>
      </trkpt>
      <trkpt lat="44.57345" lon="6.22364">
        <ele>985.488525</ele>
        <time>2011-05-19T11:54:42Z</time>
      </trkpt>
      <trkpt lat="44.57328" lon="6.22352">
        <ele>983.085205</ele>
        <time>2011-05-19T11:54:45Z</time>
      </trkpt>
      <trkpt lat="44.57313" lon="6.22344">
        <ele>981.162842</ele>
        <time>2011-05-19T11:54:47Z</time>
      </trkpt>
      <trkpt lat="44.573" lon="6.22335">
        <ele>978.759521</ele>
        <time>2011-05-19T11:54:49Z</time>
      </trkpt>
      <trkpt lat="44.57275" lon="6.22329">
        <ele>979.23999</ele>
        <time>2011-05-19T11:54:52Z</time>
      </trkpt>
      <trkpt lat="44.57262" lon="6.22328">
        <ele>976.836914</ele>
        <time>2011-05-19T11:54:54Z</time>
      </trkpt>
      <trkpt lat="44.57236" lon="6.22306">
        <ele>972.991699</ele>
        <time>2011-05-19T11:54:58Z</time>
      </trkpt>
      <trkpt lat="44.57231" lon="6.22296">
        <ele>972.991699</ele>
        <time>2011-05-19T11:54:59Z</time>
      </trkpt>
      <trkpt lat="44.57225" lon="6.22271">
        <ele>971.549316</ele>
        <time>2011-05-19T11:55:01Z</time>
      </trkpt>
      <trkpt lat="44.57221" lon="6.22249">
        <ele>970.107422</ele>
        <time>2011-05-19T11:55:03Z</time>
      </trkpt>
      <trkpt lat="44.57214" lon="6.22206">
        <ele>966.262207</ele>
        <time>2011-05-19T11:55:07Z</time>
      </trkpt>
      <trkpt lat="44.57212" lon="6.22194">
        <ele>966.262207</ele>
        <time>2011-05-19T11:55:08Z</time>
      </trkpt>
      <trkpt lat="44.57207" lon="6.2217">
        <ele>964.3396</ele>
        <time>2011-05-19T11:55:10Z</time>
      </trkpt>
      <trkpt lat="44.57202" lon="6.22144">
        <ele>962.897705</ele>
        <time>2011-05-19T11:55:12Z</time>
      </trkpt>
      <trkpt lat="44.57194" lon="6.22104">
        <ele>960.013672</ele>
        <time>2011-05-19T11:55:15Z</time>
      </trkpt>
      <trkpt lat="44.57186" lon="6.22081">
        <ele>958.571777</ele>
        <time>2011-05-19T11:55:17Z</time>
      </trkpt>
      <trkpt lat="44.57178" lon="6.22063">
        <ele>957.610596</ele>
        <time>2011-05-19T11:55:19Z</time>
      </trkpt>
      <trkpt lat="44.57164" lon="6.22035">
        <ele>954.726318</ele>
        <time>2011-05-19T11:55:22Z</time>
      </trkpt>
      <trkpt lat="44.57153" lon="6.22017">
        <ele>953.765137</ele>
        <time>2011-05-19T11:55:24Z</time>
      </trkpt>
      <trkpt lat="44.5714" lon="6.21999">
        <ele>951.842529</ele>
        <time>2011-05-19T11:55:26Z</time>
      </trkpt>
      <trkpt lat="44.57119" lon="6.21969">
        <ele>948.958496</ele>
        <time>2011-05-19T11:55:29Z</time>
      </trkpt>
      <trkpt lat="44.57104" lon="6.21948">
        <ele>947.035889</ele>
        <time>2011-05-19T11:55:31Z</time>
      </trkpt>
      <trkpt lat="44.57089" lon="6.21925">
        <ele>945.593994</ele>
        <time>2011-05-19T11:55:33Z</time>
      </trkpt>
      <trkpt lat="44.57073" lon="6.21902">
        <ele>941.748779</ele>
        <time>2011-05-19T11:55:35Z</time>
      </trkpt>
      <trkpt lat="44.57065" lon="6.21889">
        <ele>941.748779</ele>
        <time>2011-05-19T11:55:36Z</time>
      </trkpt>
      <trkpt lat="44.57052" lon="6.2186">
        <ele>939.825928</ele>
        <time>2011-05-19T11:55:38Z</time>
      </trkpt>
      <trkpt lat="44.57039" lon="6.21828">
        <ele>937.422607</ele>
        <time>2011-05-19T11:55:40Z</time>
      </trkpt>
      <trkpt lat="44.57033" lon="6.21814">
        <ele>935.5</ele>
        <time>2011-05-19T11:55:41Z</time>
      </trkpt>
      <trkpt lat="44.57026" lon="6.21785">
        <ele>934.058105</ele>
        <time>2011-05-19T11:55:43Z</time>
      </trkpt>
      <trkpt lat="44.5702" lon="6.21755">
        <ele>931.654785</ele>
        <time>2011-05-19T11:55:45Z</time>
      </trkpt>
      <trkpt lat="44.57016" lon="6.21723">
        <ele>929.732178</ele>
        <time>2011-05-19T11:55:47Z</time>
      </trkpt>
      <trkpt lat="44.57016" lon="6.2169">
        <ele>927.80957</ele>
        <time>2011-05-19T11:55:49Z</time>
      </trkpt>
      <trkpt lat="44.57017" lon="6.21656">
        <ele>923.964111</ele>
        <time>2011-05-19T11:55:51Z</time>
      </trkpt>
      <trkpt lat="44.57018" lon="6.21639">
        <ele>923.964111</ele>
        <time>2011-05-19T11:55:52Z</time>
      </trkpt>
      <trkpt lat="44.57018" lon="6.21605">
        <ele>922.041504</ele>
        <time>2011-05-19T11:55:54Z</time>
      </trkpt>
      <trkpt lat="44.57018" lon="6.21573">
        <ele>920.118896</ele>
        <time>2011-05-19T11:55:56Z</time>
      </trkpt>
      <trkpt lat="44.57018" lon="6.2153">
        <ele>918.677002</ele>
        <time>2011-05-19T11:55:59Z</time>
      </trkpt>
      <trkpt lat="44.57018" lon="6.21502">
        <ele>917.235107</ele>
        <time>2011-05-19T11:56:01Z</time>
      </trkpt>
      <trkpt lat="44.57011" lon="6.21445">
        <ele>912.90918</ele>
        <time>2011-05-19T11:56:05Z</time>
      </trkpt>
      <trkpt lat="44.57008" lon="6.2143">
        <ele>912.90918</ele>
        <time>2011-05-19T11:56:06Z</time>
      </trkpt>
      <trkpt lat="44.57002" lon="6.21402">
        <ele>910.986572</ele>
        <time>2011-05-19T11:56:08Z</time>
      </trkpt>
      <trkpt lat="44.56993" lon="6.21376">
        <ele>909.544678</ele>
        <time>2011-05-19T11:56:10Z</time>
      </trkpt>
      <trkpt lat="44.5698" lon="6.21336">
        <ele>907.141113</ele>
        <time>2011-05-19T11:56:13Z</time>
      </trkpt>
      <trkpt lat="44.56971" lon="6.2131">
        <ele>905.699219</ele>
        <time>2011-05-19T11:56:15Z</time>
      </trkpt>
      <trkpt lat="44.56947" lon="6.21242">
        <ele>902.815186</ele>
        <time>2011-05-19T11:56:20Z</time>
      </trkpt>
      <trkpt lat="44.56937" lon="6.21215">
        <ele>901.373291</ele>
        <time>2011-05-19T11:56:22Z</time>
      </trkpt>
      <trkpt lat="44.56927" lon="6.21188">
        <ele>900.412109</ele>
        <time>2011-05-19T11:56:24Z</time>
      </trkpt>
      <trkpt lat="44.56912" lon="6.2115">
        <ele>898.489258</ele>
        <time>2011-05-19T11:56:27Z</time>
      </trkpt>
      <trkpt lat="44.56871" lon="6.21053">
        <ele>895.605469</ele>
        <time>2011-05-19T11:56:35Z</time>
      </trkpt>
      <trkpt lat="44.56866" lon="6.21042">
        <ele>895.605469</ele>
        <time>2011-05-19T11:56:36Z</time>
      </trkpt>
      <trkpt lat="44.56807" lon="6.20902">
        <ele>891.76001</ele>
        <time>2011-05-19T11:56:49Z</time>
      </trkpt>
      <trkpt lat="44.56781" lon="6.20827">
        <ele>890.318115</ele>
        <time>2011-05-19T11:56:56Z</time>
      </trkpt>
      <trkpt lat="44.56745" lon="6.20683">
        <ele>886.4729</ele>
        <time>2011-05-19T11:57:09Z</time>
      </trkpt>
      <trkpt lat="44.56703" lon="6.20513">
        <ele>885.031006</ele>
        <time>2011-05-19T11:57:27Z</time>
      </trkpt>
      <trkpt lat="44.56655" lon="6.20375">
        <ele>883.108154</ele>
        <time>2011-05-19T11:57:45Z</time>
      </trkpt>
      <trkpt lat="44.56581" lon="6.20233">
        <ele>880.705078</ele>
        <time>2011-05-19T11:58:04Z</time>
      </trkpt>
      <trkpt lat="44.56563" lon="6.20203">
        <ele>880.705078</ele>
        <time>2011-05-19T11:58:09Z</time>
      </trkpt>
      <trkpt lat="44.56516" lon="6.20096">
        <ele>881.185791</ele>
        <time>2011-05-19T11:58:27Z</time>
      </trkpt>
      <trkpt lat="44.56507" lon="6.20071">
        <ele>881.66626</ele>
        <time>2011-05-19T11:58:32Z</time>
      </trkpt>
      <trkpt lat="44.5648" lon="6.20006">
        <ele>883.588867</ele>
        <time>2011-05-19T11:58:49Z</time>
      </trkpt>
      <trkpt lat="44.56469" lon="6.19976">
        <ele>882.627686</ele>
        <time>2011-05-19T11:58:57Z</time>
      </trkpt>
      <trkpt lat="44.56464" lon="6.1995">
        <ele>881.66626</ele>
        <time>2011-05-19T11:59:01Z</time>
      </trkpt>
      <trkpt lat="44.56473" lon="6.19874">
        <ele>878.782471</ele>
        <time>2011-05-19T11:59:10Z</time>
      </trkpt>
      <trkpt lat="44.56489" lon="6.19778">
        <ele>878.301758</ele>
        <time>2011-05-19T11:59:22Z</time>
      </trkpt>
      <trkpt lat="44.56528" lon="6.19715">
        <ele>879.262939</ele>
        <time>2011-05-19T11:59:36Z</time>
      </trkpt>
      <trkpt lat="44.56543" lon="6.19725">
        <ele>878.782471</ele>
        <time>2011-05-19T11:59:43Z</time>
      </trkpt>
      <trkpt lat="44.56544" lon="6.19734">
        <ele>878.782471</ele>
        <time>2011-05-19T11:59:56Z</time>
      </trkpt>
      <trkpt lat="44.56544" lon="6.19734">
        <ele>878.782471</ele>
        <time>2011-05-19T12:00:30Z</time>
      </trkpt>
    </trkseg>
  </trk>
</gpx>